QTR35C OTHH-LEBL
Flight info
| Callsign | QTR35C |
|---|---|
| Flight time | 6h 30m |
| Altitude | 40000 |
| Route | DATRI L564 MIGMA M628 AMBAG M321 KSA T503 OVANO L768 FIRAS R655 KTN R785 NIKAS L619 VESAR UN135 IMR UG802 VEXOL DCT PINDO DCT GOKEL DCT EPIKU DCT GINOX DCT KIFMI DCT ELVOP DCT MUREN DCT CHELY M601 VERSO |
| Aircraft | A359/H-SDE2E3GHIJ3J4J5LM1ORWXY/LB1D1 |
Departure
| Time | 2026-05-05 14:09 |
|---|---|
| Airport | Hamad International Airport (OTHH) |
Arrival
| Time | 2026-05-05 20:40 |
|---|---|
| Airport | Josep Tarradellas Barcelona-El Prat Airport (LEBL) |
| Time | Latitude | Longitude | Altitude | Speed | Heading |
|---|---|---|---|---|---|
| 2026-05-05 13:19 | 25.26526 | 51.61067 | 36 ft | 0 kts | 68° |
| 2026-05-05 13:52 | 25.26525 | 51.61063 | 36 ft | 3 kts | 68° |
| 2026-05-05 13:53 | 25.26515 | 51.61036 | 35 ft | 4 kts | 68° |
| 2026-05-05 13:53 | 25.26507 | 51.61013 | 33 ft | 4 kts | 72° |
| 2026-05-05 13:53 | 25.26503 | 51.60985 | 34 ft | 4 kts | 106° |
| 2026-05-05 13:53 | 25.26517 | 51.60963 | 34 ft | 4 kts | 155° |
| 2026-05-05 13:54 | 25.26540 | 51.60953 | 34 ft | 4 kts | 158° |
| 2026-05-05 13:54 | 25.26551 | 51.60948 | 33 ft | 0 kts | 158° |
| 2026-05-05 14:00 | 25.26503 | 51.60970 | 36 ft | 7 kts | 158° |
| 2026-05-05 14:00 | 25.26469 | 51.60978 | 36 ft | 8 kts | 176° |
| 2026-05-05 14:00 | 25.26417 | 51.60930 | 36 ft | 8 kts | 223° |
| 2026-05-05 14:00 | 25.26364 | 51.60927 | 36 ft | 10 kts | 165° |
| 2026-05-05 14:01 | 25.26289 | 51.60924 | 36 ft | 11 kts | 211° |
| 2026-05-05 14:01 | 25.26249 | 51.60844 | 36 ft | 13 kts | 248° |
| 2026-05-05 14:01 | 25.26213 | 51.60746 | 36 ft | 15 kts | 247° |
| 2026-05-05 14:01 | 25.26175 | 51.60642 | 36 ft | 13 kts | 248° |
| 2026-05-05 14:02 | 25.26139 | 51.60544 | 36 ft | 9 kts | 248° |
| 2026-05-05 14:02 | 25.26109 | 51.60508 | 35 ft | 8 kts | 201° |
| 2026-05-05 14:02 | 25.26034 | 51.60528 | 35 ft | 14 kts | 159° |
| 2026-05-05 14:02 | 25.25939 | 51.60567 | 35 ft | 15 kts | 160° |
| 2026-05-05 14:03 | 25.25834 | 51.60612 | 35 ft | 17 kts | 158° |
| 2026-05-05 14:03 | 25.25722 | 51.60664 | 35 ft | 15 kts | 158° |
| 2026-05-05 14:03 | 25.25644 | 51.60696 | 35 ft | 10 kts | 168° |
| 2026-05-05 14:03 | 25.25607 | 51.60681 | 35 ft | 2 kts | 222° |
| 2026-05-05 14:04 | 25.25606 | 51.60681 | 35 ft | 0 kts | 223° |
| 2026-05-05 14:06 | 25.25594 | 51.60662 | 33 ft | 8 kts | 237° |
| 2026-05-05 14:07 | 25.25567 | 51.60588 | 32 ft | 12 kts | 249° |
| 2026-05-05 14:07 | 25.25569 | 51.60538 | 31 ft | 6 kts | 308° |
| 2026-05-05 14:07 | 25.25607 | 51.60513 | 31 ft | 7 kts | 337° |
| 2026-05-05 14:07 | 25.25610 | 51.60512 | 31 ft | 0 kts | 338° |
| 2026-05-05 14:09 | 25.25760 | 51.60444 | 33 ft | 55 kts | 338° |
| 2026-05-05 14:09 | 25.26316 | 51.60201 | 33 ft | 115 kts | 338° |
| 2026-05-05 14:09 | 25.27229 | 51.59795 | 37 ft | 166 kts | 340° |
| 2026-05-05 14:09 | 25.28293 | 51.59288 | 644 ft | 164 kts | 340° |
| 2026-05-05 14:10 | 25.29372 | 51.58810 | 1191 ft | 173 kts | 340° |
| 2026-05-05 14:10 | 25.30580 | 51.58292 | 1490 ft | 200 kts | 340° |
| 2026-05-05 14:10 | 25.31946 | 51.57702 | 1662 ft | 222 kts | 339° |
| 2026-05-05 14:10 | 25.33448 | 51.57044 | 1873 ft | 242 kts | 339° |
| 2026-05-05 14:11 | 25.35077 | 51.56330 | 2110 ft | 260 kts | 339° |
| 2026-05-05 14:11 | 25.36780 | 51.55575 | 2606 ft | 265 kts | 339° |
| 2026-05-05 14:11 | 25.38504 | 51.54808 | 3180 ft | 270 kts | 339° |
| 2026-05-05 14:11 | 25.40259 | 51.54030 | 3710 ft | 273 kts | 339° |
| 2026-05-05 14:12 | 25.42027 | 51.53249 | 3961 ft | 273 kts | 339° |
| 2026-05-05 14:12 | 25.43796 | 51.52468 | 3993 ft | 274 kts | 339° |
| 2026-05-05 14:12 | 25.45568 | 51.51677 | 4022 ft | 274 kts | 338° |
| 2026-05-05 14:12 | 25.47203 | 51.50589 | 4297 ft | 279 kts | 318° |
| 2026-05-05 14:13 | 25.48236 | 51.48775 | 4895 ft | 284 kts | 288° |
| 2026-05-05 14:13 | 25.48418 | 51.46618 | 5632 ft | 282 kts | 269° |
| 2026-05-05 14:13 | 25.48323 | 51.44457 | 6329 ft | 281 kts | 268° |
| 2026-05-05 14:13 | 25.48206 | 51.42295 | 6783 ft | 282 kts | 268° |
| 2026-05-05 14:14 | 25.48097 | 51.40154 | 6965 ft | 282 kts | 269° |
| 2026-05-05 14:14 | 25.47991 | 51.37988 | 6991 ft | 282 kts | 269° |
| 2026-05-05 14:14 | 25.47890 | 51.35820 | 7009 ft | 281 kts | 269° |
| 2026-05-05 14:14 | 25.47792 | 51.33666 | 7262 ft | 282 kts | 269° |
| 2026-05-05 14:15 | 25.47697 | 51.31489 | 7836 ft | 283 kts | 268° |
| 2026-05-05 14:15 | 25.47536 | 51.29320 | 8565 ft | 283 kts | 261° |
| 2026-05-05 14:15 | 25.46823 | 51.27297 | 9252 ft | 287 kts | 237° |
| 2026-05-05 14:15 | 25.45341 | 51.25820 | 9891 ft | 295 kts | 210° |
| 2026-05-05 14:16 | 25.43335 | 51.25209 | 10363 ft | 310 kts | 187° |
| 2026-05-05 14:16 | 25.41103 | 51.25176 | 10614 ft | 330 kts | 181° |
| 2026-05-05 14:16 | 25.38747 | 51.25252 | 10847 ft | 347 kts | 180° |
| 2026-05-05 14:16 | 25.37125 | 51.25305 | 10991 ft | 357 kts | 181° |
| 2026-05-05 14:17 | 25.34601 | 51.25367 | 11349 ft | 368 kts | 181° |
| 2026-05-05 14:17 | 25.32029 | 51.25415 | 11852 ft | 372 kts | 181° |
| 2026-05-05 14:17 | 25.29422 | 51.25457 | 12432 ft | 376 kts | 181° |
| 2026-05-05 14:17 | 25.26802 | 51.25719 | 12990 ft | 382 kts | 169° |
| 2026-05-05 14:18 | 25.24249 | 51.26612 | 13579 ft | 387 kts | 161° |
| 2026-05-05 14:18 | 25.21727 | 51.27681 | 14087 ft | 390 kts | 160° |
| 2026-05-05 14:18 | 25.19190 | 51.28771 | 14545 ft | 391 kts | 160° |
| 2026-05-05 14:18 | 25.16643 | 51.29859 | 14994 ft | 394 kts | 161° |
| 2026-05-05 14:19 | 25.14062 | 51.30890 | 15531 ft | 395 kts | 166° |
| 2026-05-05 14:19 | 25.11368 | 51.31410 | 16072 ft | 393 kts | 180° |
| 2026-05-05 14:19 | 25.08663 | 51.31103 | 16591 ft | 390 kts | 198° |
| 2026-05-05 14:19 | 25.06215 | 51.29860 | 17076 ft | 388 kts | 217° |
| 2026-05-05 14:20 | 25.04306 | 51.27789 | 17577 ft | 387 kts | 236° |
| 2026-05-05 14:20 | 25.03148 | 51.25127 | 18036 ft | 387 kts | 255° |
| 2026-05-05 14:20 | 25.02721 | 51.22190 | 18464 ft | 389 kts | 265° |
| 2026-05-05 14:20 | 25.02619 | 51.19199 | 18906 ft | 392 kts | 270° |
| 2026-05-05 14:21 | 25.02668 | 51.16186 | 19358 ft | 395 kts | 271° |
| 2026-05-05 14:21 | 25.02765 | 51.13192 | 19806 ft | 397 kts | 272° |
| 2026-05-05 14:21 | 25.02859 | 51.10137 | 20280 ft | 400 kts | 271° |
| 2026-05-05 14:21 | 25.02930 | 51.07062 | 20772 ft | 403 kts | 271° |
| 2026-05-05 14:22 | 25.02974 | 51.03973 | 21284 ft | 404 kts | 270° |
| 2026-05-05 14:22 | 25.02999 | 51.00862 | 21773 ft | 407 kts | 270° |
| 2026-05-05 14:22 | 25.03011 | 50.97731 | 22255 ft | 410 kts | 270° |
| 2026-05-05 14:22 | 25.03017 | 50.94576 | 22727 ft | 413 kts | 270° |
| 2026-05-05 14:23 | 25.03022 | 50.91400 | 23193 ft | 416 kts | 270° |
| 2026-05-05 14:23 | 25.03026 | 50.88201 | 23640 ft | 418 kts | 270° |
| 2026-05-05 14:23 | 25.03030 | 50.84993 | 24128 ft | 418 kts | 270° |
| 2026-05-05 14:23 | 25.03036 | 50.81787 | 24659 ft | 418 kts | 269° |
| 2026-05-05 14:24 | 25.03041 | 50.78580 | 25147 ft | 419 kts | 269° |
| 2026-05-05 14:24 | 25.03045 | 50.75366 | 25616 ft | 420 kts | 269° |
| 2026-05-05 14:24 | 25.03049 | 50.72136 | 26071 ft | 422 kts | 269° |
| 2026-05-05 14:24 | 25.03053 | 50.68897 | 26554 ft | 423 kts | 269° |
| 2026-05-05 14:25 | 25.03056 | 50.65695 | 27018 ft | 424 kts | 269° |
| 2026-05-05 14:25 | 25.03058 | 50.62440 | 27486 ft | 425 kts | 269° |
| 2026-05-05 14:25 | 25.03059 | 50.59177 | 27952 ft | 426 kts | 269° |
| 2026-05-05 14:25 | 25.03060 | 50.55907 | 28391 ft | 428 kts | 269° |
| 2026-05-05 14:26 | 25.03060 | 50.52618 | 28816 ft | 430 kts | 269° |
| 2026-05-05 14:26 | 25.03059 | 50.49323 | 29237 ft | 431 kts | 269° |
| 2026-05-05 14:26 | 25.03058 | 50.46007 | 29651 ft | 433 kts | 269° |
| 2026-05-05 14:26 | 25.03055 | 50.42686 | 30001 ft | 435 kts | 269° |
| 2026-05-05 14:27 | 25.03052 | 50.39346 | 30331 ft | 436 kts | 268° |
| 2026-05-05 14:27 | 25.03048 | 50.35997 | 30644 ft | 438 kts | 268° |
| 2026-05-05 14:27 | 25.03043 | 50.32633 | 30950 ft | 440 kts | 268° |
| 2026-05-05 14:27 | 25.03038 | 50.29254 | 31243 ft | 442 kts | 268° |
| 2026-05-05 14:28 | 25.03032 | 50.25861 | 31527 ft | 443 kts | 268° |
| 2026-05-05 14:28 | 25.03025 | 50.22457 | 31819 ft | 445 kts | 268° |
| 2026-05-05 14:28 | 25.03017 | 50.19039 | 32091 ft | 447 kts | 268° |
| 2026-05-05 14:28 | 25.03008 | 50.15610 | 32366 ft | 448 kts | 268° |
| 2026-05-05 14:29 | 25.02999 | 50.12169 | 32623 ft | 450 kts | 268° |
| 2026-05-05 14:29 | 25.02989 | 50.08716 | 32869 ft | 451 kts | 268° |
| 2026-05-05 14:29 | 25.02978 | 50.05252 | 33120 ft | 453 kts | 268° |
| 2026-05-05 14:29 | 25.02966 | 50.01779 | 33395 ft | 453 kts | 268° |
| 2026-05-05 14:30 | 25.02954 | 49.98313 | 33767 ft | 451 kts | 267° |
| 2026-05-05 14:30 | 25.02942 | 49.94866 | 34056 ft | 450 kts | 267° |
| 2026-05-05 14:30 | 25.02928 | 49.91409 | 34258 ft | 451 kts | 267° |
| 2026-05-05 14:30 | 25.02913 | 49.87949 | 34515 ft | 451 kts | 267° |
| 2026-05-05 14:31 | 25.02897 | 49.84501 | 34814 ft | 449 kts | 267° |
| 2026-05-05 14:31 | 25.02881 | 49.81109 | 35104 ft | 448 kts | 267° |
| 2026-05-05 14:31 | 25.02864 | 49.77670 | 35365 ft | 447 kts | 267° |
| 2026-05-05 14:31 | 25.02846 | 49.74249 | 35624 ft | 446 kts | 267° |
| 2026-05-05 14:32 | 25.02827 | 49.70822 | 35846 ft | 447 kts | 267° |
| 2026-05-05 14:32 | 25.02807 | 49.67397 | 36070 ft | 446 kts | 267° |
| 2026-05-05 14:32 | 25.02787 | 49.63977 | 36322 ft | 446 kts | 267° |
| 2026-05-05 14:32 | 25.02766 | 49.60559 | 36566 ft | 445 kts | 267° |
| 2026-05-05 14:33 | 25.02744 | 49.57156 | 36831 ft | 444 kts | 267° |
| 2026-05-05 14:33 | 25.02722 | 49.53760 | 37150 ft | 441 kts | 267° |
| 2026-05-05 14:33 | 25.02700 | 49.50386 | 37461 ft | 439 kts | 267° |
| 2026-05-05 14:33 | 25.02676 | 49.47030 | 37729 ft | 437 kts | 266° |
| 2026-05-05 14:34 | 25.02652 | 49.43682 | 37937 ft | 436 kts | 266° |
| 2026-05-05 14:34 | 25.02626 | 49.40378 | 38120 ft | 436 kts | 266° |
| 2026-05-05 14:34 | 25.02600 | 49.37036 | 38304 ft | 436 kts | 266° |
| 2026-05-05 14:34 | 25.02573 | 49.33697 | 38477 ft | 435 kts | 266° |
| 2026-05-05 14:35 | 25.02546 | 49.30364 | 38628 ft | 435 kts | 266° |
| 2026-05-05 14:35 | 25.02517 | 49.27029 | 38740 ft | 435 kts | 266° |
| 2026-05-05 14:35 | 25.02488 | 49.23693 | 38873 ft | 435 kts | 266° |
| 2026-05-05 14:35 | 25.02459 | 49.20359 | 39000 ft | 435 kts | 266° |
| 2026-05-05 14:36 | 25.02428 | 49.17025 | 39128 ft | 434 kts | 266° |
| 2026-05-05 14:36 | 25.02398 | 49.13697 | 39259 ft | 434 kts | 266° |
| 2026-05-05 14:36 | 25.02366 | 49.10370 | 39366 ft | 434 kts | 266° |
| 2026-05-05 14:36 | 25.02333 | 49.07046 | 39496 ft | 434 kts | 266° |
| 2026-05-05 14:37 | 25.02300 | 49.03723 | 39629 ft | 433 kts | 266° |
| 2026-05-05 14:37 | 25.02267 | 49.00407 | 39722 ft | 433 kts | 266° |
| 2026-05-05 14:37 | 25.02196 | 48.93799 | 39742 ft | 435 kts | 266° |
| 2026-05-05 14:38 | 25.02123 | 48.87134 | 39745 ft | 434 kts | 266° |
| 2026-05-05 14:38 | 25.02047 | 48.80475 | 39743 ft | 434 kts | 266° |
| 2026-05-05 14:39 | 25.01969 | 48.73830 | 39744 ft | 433 kts | 266° |
| 2026-05-05 14:39 | 25.01887 | 48.67193 | 39747 ft | 433 kts | 266° |
| 2026-05-05 14:40 | 25.01802 | 48.60559 | 39751 ft | 432 kts | 266° |
| 2026-05-05 14:40 | 25.01715 | 48.53932 | 39749 ft | 432 kts | 266° |
| 2026-05-05 14:41 | 25.01625 | 48.47350 | 39753 ft | 432 kts | 266° |
| 2026-05-05 14:41 | 25.01532 | 48.40733 | 39754 ft | 432 kts | 266° |
| 2026-05-05 14:42 | 25.01436 | 48.34116 | 39756 ft | 431 kts | 266° |
| 2026-05-05 14:42 | 25.01337 | 48.27502 | 39759 ft | 431 kts | 266° |
| 2026-05-05 14:43 | 25.01235 | 48.20895 | 39766 ft | 431 kts | 266° |
| 2026-05-05 14:43 | 25.01130 | 48.14281 | 39766 ft | 431 kts | 266° |
| 2026-05-05 14:44 | 25.01023 | 48.07666 | 39769 ft | 430 kts | 265° |
| 2026-05-05 14:44 | 25.00914 | 48.01095 | 39768 ft | 428 kts | 265° |
| 2026-05-05 14:45 | 25.00800 | 47.94536 | 39777 ft | 428 kts | 265° |
| 2026-05-05 14:45 | 25.00685 | 47.88013 | 39780 ft | 428 kts | 265° |
| 2026-05-05 14:46 | 25.00566 | 47.81444 | 39778 ft | 428 kts | 265° |
| 2026-05-05 14:46 | 25.00446 | 47.74890 | 39787 ft | 428 kts | 265° |
| 2026-05-05 14:47 | 25.00322 | 47.68338 | 39788 ft | 427 kts | 265° |
| 2026-05-05 14:47 | 25.00195 | 47.61796 | 39789 ft | 427 kts | 265° |
| 2026-05-05 14:48 | 25.00065 | 47.55257 | 39789 ft | 427 kts | 265° |
| 2026-05-05 14:48 | 24.99933 | 47.48720 | 39794 ft | 426 kts | 265° |
| 2026-05-05 14:49 | 24.99797 | 47.42185 | 39800 ft | 426 kts | 265° |
| 2026-05-05 14:49 | 24.99660 | 47.35661 | 39805 ft | 424 kts | 265° |
| 2026-05-05 14:50 | 24.99521 | 47.29180 | 39809 ft | 422 kts | 265° |
| 2026-05-05 14:50 | 24.99379 | 47.22755 | 39809 ft | 422 kts | 265° |
| 2026-05-05 14:51 | 24.99234 | 47.16280 | 39813 ft | 422 kts | 265° |
| 2026-05-05 14:51 | 24.99085 | 47.09808 | 39814 ft | 423 kts | 265° |
| 2026-05-05 14:52 | 24.98935 | 47.03325 | 39823 ft | 423 kts | 265° |
| 2026-05-05 14:52 | 24.98781 | 46.96839 | 39822 ft | 423 kts | 265° |
| 2026-05-05 14:53 | 24.98624 | 46.90350 | 39817 ft | 424 kts | 265° |
| 2026-05-05 14:53 | 24.98465 | 46.83859 | 39825 ft | 424 kts | 265° |
| 2026-05-05 14:54 | 24.98313 | 46.77403 | 39827 ft | 425 kts | 266° |
| 2026-05-05 14:54 | 24.98994 | 46.70873 | 39845 ft | 433 kts | 279° |
| 2026-05-05 14:55 | 25.01309 | 46.64730 | 39825 ft | 446 kts | 295° |
| 2026-05-05 14:55 | 25.05242 | 46.59320 | 39832 ft | 459 kts | 306° |
| 2026-05-05 14:56 | 25.09933 | 46.54462 | 39832 ft | 465 kts | 310° |
| 2026-05-05 14:56 | 25.14762 | 46.49718 | 39830 ft | 464 kts | 309° |
| 2026-05-05 14:57 | 25.19545 | 46.44928 | 39837 ft | 463 kts | 309° |
| 2026-05-05 14:57 | 25.24266 | 46.40112 | 39837 ft | 462 kts | 309° |
| 2026-05-05 14:58 | 25.28970 | 46.35281 | 39839 ft | 462 kts | 309° |
| 2026-05-05 14:58 | 25.33642 | 46.30476 | 39843 ft | 462 kts | 308° |
| 2026-05-05 14:59 | 25.38345 | 46.25640 | 39843 ft | 462 kts | 308° |
| 2026-05-05 14:59 | 25.43049 | 46.20800 | 39845 ft | 462 kts | 308° |
| 2026-05-05 15:00 | 25.46989 | 46.16742 | 39867 ft | 462 kts | 308° |
| 2026-05-05 15:00 | 25.52450 | 46.11110 | 39848 ft | 462 kts | 308° |
| 2026-05-05 15:01 | 25.57145 | 46.06261 | 39850 ft | 462 kts | 308° |
| 2026-05-05 15:01 | 25.61841 | 46.01408 | 39849 ft | 462 kts | 308° |
| 2026-05-05 15:02 | 25.66537 | 45.96556 | 39851 ft | 461 kts | 308° |
| 2026-05-05 15:02 | 25.71216 | 45.91705 | 39854 ft | 460 kts | 307° |
| 2026-05-05 15:03 | 25.75892 | 45.86851 | 39854 ft | 460 kts | 307° |
| 2026-05-05 15:03 | 25.80568 | 45.81993 | 39856 ft | 460 kts | 307° |
| 2026-05-05 15:04 | 25.85209 | 45.77169 | 39864 ft | 460 kts | 307° |
| 2026-05-05 15:04 | 25.89883 | 45.72311 | 39856 ft | 460 kts | 307° |
| 2026-05-05 15:05 | 25.96873 | 45.65019 | 39861 ft | 459 kts | 307° |
| 2026-05-05 15:06 | 26.01531 | 45.60154 | 39859 ft | 459 kts | 307° |
| 2026-05-05 15:06 | 26.06180 | 45.55292 | 39860 ft | 459 kts | 307° |
| 2026-05-05 15:07 | 26.10827 | 45.50430 | 39871 ft | 459 kts | 307° |
| 2026-05-05 15:07 | 26.15472 | 45.45564 | 39858 ft | 459 kts | 307° |
| 2026-05-05 15:08 | 26.20115 | 45.40697 | 39855 ft | 458 kts | 307° |
| 2026-05-05 15:08 | 26.24754 | 45.35827 | 39860 ft | 458 kts | 307° |
| 2026-05-05 15:09 | 26.29390 | 45.30955 | 39856 ft | 458 kts | 307° |
| 2026-05-05 15:09 | 26.34033 | 45.26084 | 39856 ft | 458 kts | 307° |
| 2026-05-05 15:10 | 26.38675 | 45.21216 | 39858 ft | 458 kts | 307° |
| 2026-05-05 15:10 | 26.43316 | 45.16342 | 39858 ft | 458 kts | 307° |
| 2026-05-05 15:11 | 26.47926 | 45.11496 | 39856 ft | 458 kts | 307° |
| 2026-05-05 15:11 | 26.52566 | 45.06612 | 39853 ft | 458 kts | 307° |
| 2026-05-05 15:12 | 26.57206 | 45.01724 | 39853 ft | 458 kts | 307° |
| 2026-05-05 15:12 | 26.61842 | 44.96839 | 39851 ft | 458 kts | 306° |
| 2026-05-05 15:13 | 26.66484 | 44.91938 | 39847 ft | 459 kts | 306° |
| 2026-05-05 15:13 | 26.71127 | 44.87028 | 39848 ft | 459 kts | 306° |
| 2026-05-05 15:14 | 26.75768 | 44.82117 | 39847 ft | 459 kts | 306° |
| 2026-05-05 15:14 | 26.80411 | 44.77202 | 39845 ft | 459 kts | 306° |
| 2026-05-05 15:15 | 26.85009 | 44.72313 | 39850 ft | 459 kts | 306° |
| 2026-05-05 15:15 | 26.89635 | 44.67386 | 39841 ft | 459 kts | 306° |
| 2026-05-05 15:16 | 26.94265 | 44.62452 | 39851 ft | 460 kts | 306° |
| 2026-05-05 15:16 | 26.98147 | 44.58312 | 39854 ft | 460 kts | 306° |
| 2026-05-05 15:17 | 27.02760 | 44.53397 | 39843 ft | 460 kts | 306° |
| 2026-05-05 15:17 | 27.07392 | 44.48436 | 39842 ft | 460 kts | 306° |
| 2026-05-05 15:18 | 27.12018 | 44.43470 | 39848 ft | 460 kts | 306° |
| 2026-05-05 15:18 | 27.16644 | 44.38505 | 39854 ft | 460 kts | 306° |
| 2026-05-05 15:19 | 27.21276 | 44.33543 | 39855 ft | 460 kts | 306° |
| 2026-05-05 15:19 | 27.25898 | 44.28581 | 39847 ft | 460 kts | 306° |
| 2026-05-05 15:20 | 27.30517 | 44.23616 | 39858 ft | 460 kts | 306° |
| 2026-05-05 15:20 | 27.35139 | 44.18644 | 39868 ft | 459 kts | 305° |
| 2026-05-05 15:21 | 27.39752 | 44.13674 | 39873 ft | 459 kts | 305° |
| 2026-05-05 15:21 | 27.44364 | 44.08701 | 39876 ft | 459 kts | 305° |
| 2026-05-05 15:22 | 27.48972 | 44.03724 | 39880 ft | 459 kts | 305° |
| 2026-05-05 15:22 | 27.53580 | 43.98742 | 39885 ft | 459 kts | 305° |
| 2026-05-05 15:23 | 27.58153 | 43.93791 | 39884 ft | 459 kts | 305° |
| 2026-05-05 15:23 | 27.62758 | 43.88801 | 39888 ft | 459 kts | 305° |
| 2026-05-05 15:24 | 27.67361 | 43.83807 | 39890 ft | 459 kts | 305° |
| 2026-05-05 15:24 | 27.71961 | 43.78809 | 39892 ft | 459 kts | 305° |
| 2026-05-05 15:25 | 27.76561 | 43.73805 | 39898 ft | 459 kts | 305° |
| 2026-05-05 15:25 | 27.81158 | 43.68799 | 39900 ft | 459 kts | 305° |
| 2026-05-05 15:26 | 27.85746 | 43.63784 | 39906 ft | 458 kts | 304° |
| 2026-05-05 15:26 | 27.90117 | 43.58601 | 39909 ft | 454 kts | 302° |
| 2026-05-05 15:27 | 27.94388 | 43.53331 | 39904 ft | 454 kts | 302° |
| 2026-05-05 15:27 | 27.98687 | 43.48072 | 39912 ft | 455 kts | 302° |
| 2026-05-05 15:28 | 28.03009 | 43.42838 | 39935 ft | 455 kts | 302° |
| 2026-05-05 15:28 | 28.07315 | 43.37635 | 39923 ft | 456 kts | 302° |
| 2026-05-05 15:29 | 28.11655 | 43.32382 | 39924 ft | 457 kts | 302° |
| 2026-05-05 15:29 | 28.15994 | 43.27123 | 39925 ft | 457 kts | 302° |
| 2026-05-05 15:30 | 28.20335 | 43.21854 | 39930 ft | 457 kts | 302° |
| 2026-05-05 15:30 | 28.24667 | 43.16591 | 39933 ft | 456 kts | 302° |
| 2026-05-05 15:31 | 28.28993 | 43.11325 | 39933 ft | 456 kts | 302° |
| 2026-05-05 15:31 | 28.33316 | 43.06056 | 39932 ft | 456 kts | 302° |
| 2026-05-05 15:32 | 28.37632 | 43.00789 | 39951 ft | 456 kts | 302° |
| 2026-05-05 15:32 | 28.41943 | 42.95523 | 39938 ft | 455 kts | 302° |
| 2026-05-05 15:33 | 28.46249 | 42.90255 | 39958 ft | 455 kts | 302° |
| 2026-05-05 15:33 | 28.50548 | 42.84990 | 39933 ft | 454 kts | 302° |
| 2026-05-05 15:34 | 28.54811 | 42.79761 | 39941 ft | 454 kts | 302° |
| 2026-05-05 15:34 | 28.59101 | 42.74491 | 39936 ft | 454 kts | 302° |
| 2026-05-05 15:35 | 28.63388 | 42.69218 | 39947 ft | 454 kts | 302° |
| 2026-05-05 15:35 | 28.67681 | 42.63940 | 39946 ft | 454 kts | 302° |
| 2026-05-05 15:36 | 28.71966 | 42.58655 | 39956 ft | 454 kts | 302° |
| 2026-05-05 15:36 | 28.76243 | 42.53369 | 39952 ft | 453 kts | 302° |
| 2026-05-05 15:37 | 28.80515 | 42.48084 | 39954 ft | 453 kts | 302° |
| 2026-05-05 15:37 | 28.84786 | 42.42797 | 39960 ft | 453 kts | 302° |
| 2026-05-05 15:38 | 28.89048 | 42.37513 | 39964 ft | 452 kts | 302° |
| 2026-05-05 15:38 | 28.93308 | 42.32228 | 39962 ft | 452 kts | 302° |
| 2026-05-05 15:39 | 28.97558 | 42.26945 | 39968 ft | 452 kts | 302° |
| 2026-05-05 15:39 | 29.01778 | 42.21693 | 39967 ft | 452 kts | 302° |
| 2026-05-05 15:40 | 29.06025 | 42.16402 | 39980 ft | 451 kts | 302° |
| 2026-05-05 15:40 | 29.10269 | 42.11107 | 39978 ft | 451 kts | 302° |
| 2026-05-05 15:41 | 29.14508 | 42.05808 | 39979 ft | 451 kts | 301° |
| 2026-05-05 15:41 | 29.18744 | 42.00507 | 39982 ft | 451 kts | 301° |
| 2026-05-05 15:42 | 29.22979 | 41.95202 | 39982 ft | 450 kts | 301° |
| 2026-05-05 15:42 | 29.27197 | 41.89913 | 39985 ft | 449 kts | 301° |
| 2026-05-05 15:43 | 29.31403 | 41.84630 | 39990 ft | 449 kts | 301° |
| 2026-05-05 15:43 | 29.35605 | 41.79342 | 39988 ft | 449 kts | 301° |
| 2026-05-05 15:44 | 29.39775 | 41.74089 | 39987 ft | 448 kts | 301° |
| 2026-05-05 15:44 | 29.43972 | 41.68795 | 40004 ft | 449 kts | 301° |
| 2026-05-05 15:45 | 29.48170 | 41.63494 | 40002 ft | 448 kts | 301° |
| 2026-05-05 15:45 | 29.52364 | 41.58190 | 39988 ft | 449 kts | 301° |
| 2026-05-05 15:46 | 29.56561 | 41.52875 | 39999 ft | 449 kts | 301° |
| 2026-05-05 15:46 | 29.60771 | 41.47535 | 40001 ft | 451 kts | 301° |
| 2026-05-05 15:47 | 29.64984 | 41.42188 | 40005 ft | 451 kts | 301° |
| 2026-05-05 15:47 | 29.69170 | 41.36868 | 40003 ft | 451 kts | 301° |
| 2026-05-05 15:48 | 29.73412 | 41.31535 | 40012 ft | 456 kts | 304° |
| 2026-05-05 15:48 | 29.78094 | 41.26537 | 40005 ft | 460 kts | 307° |
| 2026-05-05 15:49 | 29.82877 | 41.21618 | 40007 ft | 461 kts | 307° |
| 2026-05-05 15:49 | 29.87676 | 41.16713 | 39998 ft | 461 kts | 307° |
| 2026-05-05 15:50 | 29.92470 | 41.11796 | 40018 ft | 461 kts | 307° |
| 2026-05-05 15:50 | 29.97251 | 41.06874 | 40009 ft | 461 kts | 307° |
| 2026-05-05 15:51 | 30.02000 | 41.01975 | 39988 ft | 461 kts | 307° |
| 2026-05-05 15:51 | 30.06773 | 40.97044 | 40020 ft | 461 kts | 307° |
| 2026-05-05 15:52 | 30.11543 | 40.92111 | 40006 ft | 460 kts | 307° |
| 2026-05-05 15:52 | 30.16308 | 40.87177 | 39999 ft | 459 kts | 307° |
| 2026-05-05 15:53 | 30.21055 | 40.82255 | 39999 ft | 458 kts | 307° |
| 2026-05-05 15:53 | 30.25803 | 40.77324 | 39999 ft | 458 kts | 307° |
| 2026-05-05 15:54 | 30.30540 | 40.72396 | 39999 ft | 458 kts | 307° |
| 2026-05-05 15:54 | 30.35283 | 40.67457 | 39999 ft | 458 kts | 307° |
| 2026-05-05 15:55 | 30.40023 | 40.62523 | 40004 ft | 459 kts | 307° |
| 2026-05-05 15:55 | 30.44772 | 40.57654 | 39999 ft | 459 kts | 308° |
| 2026-05-05 15:56 | 30.49561 | 40.52768 | 40001 ft | 458 kts | 308° |
| 2026-05-05 15:56 | 30.54339 | 40.47877 | 40003 ft | 458 kts | 308° |
| 2026-05-05 15:57 | 30.59111 | 40.42976 | 39995 ft | 457 kts | 308° |
| 2026-05-05 15:57 | 30.63869 | 40.38081 | 40000 ft | 457 kts | 308° |
| 2026-05-05 15:58 | 30.68623 | 40.33182 | 39998 ft | 457 kts | 308° |
| 2026-05-05 15:58 | 30.73347 | 40.28308 | 39993 ft | 457 kts | 308° |
| 2026-05-05 15:59 | 30.78095 | 40.23403 | 40016 ft | 457 kts | 308° |
| 2026-05-05 15:59 | 30.82831 | 40.18507 | 39997 ft | 455 kts | 307° |
| 2026-05-05 16:00 | 30.87554 | 40.13615 | 39989 ft | 454 kts | 307° |
| 2026-05-05 16:00 | 30.92273 | 40.08718 | 39991 ft | 454 kts | 307° |
| 2026-05-05 16:01 | 30.96986 | 40.03822 | 39993 ft | 454 kts | 307° |
| 2026-05-05 16:01 | 31.01695 | 39.98925 | 39984 ft | 453 kts | 307° |
| 2026-05-05 16:02 | 31.06388 | 39.94039 | 39981 ft | 452 kts | 307° |
| 2026-05-05 16:02 | 31.11076 | 39.89148 | 39981 ft | 452 kts | 307° |
| 2026-05-05 16:03 | 31.15760 | 39.84254 | 39975 ft | 452 kts | 307° |
| 2026-05-05 16:03 | 31.20421 | 39.79378 | 39987 ft | 453 kts | 307° |
| 2026-05-05 16:04 | 31.25115 | 39.74461 | 39982 ft | 453 kts | 307° |
| 2026-05-05 16:04 | 31.29809 | 39.69539 | 39976 ft | 453 kts | 307° |
| 2026-05-05 16:05 | 31.34504 | 39.64609 | 39973 ft | 453 kts | 307° |
| 2026-05-05 16:05 | 31.39196 | 39.59674 | 39973 ft | 453 kts | 307° |
| 2026-05-05 16:06 | 31.43887 | 39.54734 | 39972 ft | 454 kts | 307° |
| 2026-05-05 16:06 | 31.48589 | 39.49772 | 39970 ft | 456 kts | 307° |
| 2026-05-05 16:07 | 31.53306 | 39.44790 | 39972 ft | 456 kts | 307° |
| 2026-05-05 16:07 | 31.58017 | 39.39808 | 39973 ft | 456 kts | 307° |
| 2026-05-05 16:08 | 31.62691 | 39.34857 | 39990 ft | 456 kts | 307° |
| 2026-05-05 16:08 | 31.67401 | 39.29859 | 39971 ft | 457 kts | 308° |
| 2026-05-05 16:09 | 31.72123 | 39.24842 | 39970 ft | 458 kts | 308° |
| 2026-05-05 16:09 | 31.76848 | 39.19817 | 39971 ft | 458 kts | 307° |
| 2026-05-05 16:10 | 31.82074 | 39.15324 | 39995 ft | 476 kts | 320° |
| 2026-05-05 16:10 | 31.87964 | 39.11654 | 39998 ft | 481 kts | 323° |
| 2026-05-05 16:11 | 31.93956 | 39.08152 | 39966 ft | 480 kts | 323° |
| 2026-05-05 16:12 | 32.05911 | 39.01153 | 39964 ft | 479 kts | 323° |
| 2026-05-05 16:13 | 32.20779 | 38.92377 | 39951 ft | 479 kts | 323° |
| 2026-05-05 16:13 | 32.26743 | 38.88846 | 39973 ft | 479 kts | 323° |
| 2026-05-05 16:14 | 32.37647 | 38.82380 | 39971 ft | 478 kts | 323° |
| 2026-05-05 16:15 | 32.50506 | 38.74732 | 39955 ft | 479 kts | 323° |
| 2026-05-05 16:16 | 32.61401 | 38.68235 | 39955 ft | 479 kts | 323° |
| 2026-05-05 16:17 | 32.70331 | 38.62898 | 39955 ft | 480 kts | 324° |
| 2026-05-05 16:18 | 32.79266 | 38.57545 | 39957 ft | 479 kts | 324° |
| 2026-05-05 16:19 | 32.88201 | 38.52182 | 39958 ft | 479 kts | 324° |
| 2026-05-05 16:19 | 32.97132 | 38.46808 | 39960 ft | 479 kts | 324° |
| 2026-05-05 16:20 | 33.09023 | 38.39635 | 39963 ft | 479 kts | 324° |
| 2026-05-05 16:22 | 33.23853 | 38.30667 | 39963 ft | 479 kts | 324° |
| 2026-05-05 16:23 | 33.35724 | 38.23414 | 39966 ft | 479 kts | 324° |
| 2026-05-05 16:23 | 33.44628 | 38.17961 | 40003 ft | 479 kts | 325° |
| 2026-05-05 16:24 | 33.50551 | 38.14355 | 39960 ft | 477 kts | 325° |
| 2026-05-05 16:25 | 33.59413 | 38.08976 | 39964 ft | 476 kts | 325° |
| 2026-05-05 16:25 | 33.68229 | 38.03606 | 39963 ft | 476 kts | 325° |
| 2026-05-05 16:26 | 33.80056 | 37.96380 | 39965 ft | 478 kts | 325° |
| 2026-05-05 16:27 | 33.85652 | 37.92259 | 39967 ft | 463 kts | 313° |
| 2026-05-05 16:27 | 33.89934 | 37.86698 | 39977 ft | 447 kts | 298° |
| 2026-05-05 16:28 | 33.93349 | 37.80473 | 39974 ft | 445 kts | 296° |
| 2026-05-05 16:28 | 33.96617 | 37.74142 | 39974 ft | 445 kts | 296° |
| 2026-05-05 16:29 | 33.99857 | 37.67852 | 39980 ft | 446 kts | 296° |
| 2026-05-05 16:29 | 34.03150 | 37.61504 | 39979 ft | 447 kts | 296° |
| 2026-05-05 16:30 | 34.06454 | 37.55154 | 39980 ft | 447 kts | 296° |
| 2026-05-05 16:30 | 34.09760 | 37.48796 | 39980 ft | 447 kts | 296° |
| 2026-05-05 16:31 | 34.13067 | 37.42422 | 39984 ft | 449 kts | 296° |
| 2026-05-05 16:31 | 34.16397 | 37.35984 | 39983 ft | 455 kts | 296° |
| 2026-05-05 16:32 | 34.19745 | 37.29508 | 39985 ft | 455 kts | 296° |
| 2026-05-05 16:32 | 34.23709 | 37.23466 | 39999 ft | 462 kts | 306° |
| 2026-05-05 16:33 | 34.28099 | 37.17796 | 39986 ft | 461 kts | 308° |
| 2026-05-05 16:33 | 34.32505 | 37.12253 | 39991 ft | 460 kts | 308° |
| 2026-05-05 16:34 | 34.36930 | 37.06673 | 39990 ft | 459 kts | 308° |
| 2026-05-05 16:34 | 34.41341 | 37.01077 | 39990 ft | 459 kts | 308° |
| 2026-05-05 16:35 | 34.45744 | 36.95471 | 39992 ft | 459 kts | 308° |
| 2026-05-05 16:35 | 34.50153 | 36.89846 | 39987 ft | 460 kts | 308° |
| 2026-05-05 16:36 | 34.54557 | 36.84221 | 39987 ft | 460 kts | 308° |
| 2026-05-05 16:36 | 34.58961 | 36.78586 | 39988 ft | 460 kts | 308° |
| 2026-05-05 16:37 | 34.63364 | 36.72944 | 39994 ft | 460 kts | 308° |
| 2026-05-05 16:37 | 34.67773 | 36.67284 | 39990 ft | 462 kts | 308° |
| 2026-05-05 16:38 | 34.72166 | 36.61643 | 39990 ft | 463 kts | 308° |
| 2026-05-05 16:38 | 34.76584 | 36.55952 | 39991 ft | 463 kts | 307° |
| 2026-05-05 16:39 | 34.80994 | 36.50259 | 39996 ft | 463 kts | 307° |
| 2026-05-05 16:39 | 34.85413 | 36.44546 | 39996 ft | 465 kts | 308° |
| 2026-05-05 16:40 | 34.89852 | 36.38798 | 40008 ft | 466 kts | 308° |
| 2026-05-05 16:40 | 34.94287 | 36.33050 | 39995 ft | 465 kts | 308° |
| 2026-05-05 16:41 | 34.98714 | 36.27303 | 39999 ft | 464 kts | 308° |
| 2026-05-05 16:41 | 35.03125 | 36.21563 | 40000 ft | 463 kts | 308° |
| 2026-05-05 16:42 | 35.07527 | 36.15827 | 39995 ft | 463 kts | 308° |
| 2026-05-05 16:42 | 35.11897 | 36.10121 | 39995 ft | 463 kts | 308° |
| 2026-05-05 16:43 | 35.16275 | 36.04297 | 39995 ft | 460 kts | 304° |
| 2026-05-05 16:43 | 35.19591 | 35.97797 | 39996 ft | 451 kts | 290° |
| 2026-05-05 16:44 | 35.21201 | 35.90482 | 39993 ft | 444 kts | 274° |
| 2026-05-05 16:44 | 35.20957 | 35.82984 | 39994 ft | 442 kts | 261° |
| 2026-05-05 16:45 | 35.20335 | 35.75624 | 39993 ft | 443 kts | 269° |
| 2026-05-05 16:45 | 35.21210 | 35.68364 | 39993 ft | 448 kts | 285° |
| 2026-05-05 16:46 | 35.23625 | 35.61625 | 39988 ft | 452 kts | 294° |
| 2026-05-05 16:46 | 35.26362 | 35.55311 | 39990 ft | 453 kts | 295° |
| 2026-05-05 16:47 | 35.29007 | 35.49326 | 39997 ft | 453 kts | 295° |
| 2026-05-05 16:47 | 35.31667 | 35.43245 | 39985 ft | 453 kts | 295° |
| 2026-05-05 16:48 | 35.34328 | 35.37098 | 39985 ft | 453 kts | 295° |
| 2026-05-05 16:48 | 35.36962 | 35.30978 | 39985 ft | 453 kts | 295° |
| 2026-05-05 16:49 | 35.39760 | 35.24466 | 39990 ft | 453 kts | 295° |
| 2026-05-05 16:49 | 35.42645 | 35.17741 | 39988 ft | 452 kts | 295° |
| 2026-05-05 16:50 | 35.45410 | 35.11284 | 39988 ft | 452 kts | 295° |
| 2026-05-05 16:50 | 35.47998 | 35.05229 | 39987 ft | 452 kts | 295° |
| 2026-05-05 16:51 | 35.50593 | 34.99146 | 39997 ft | 452 kts | 295° |
| 2026-05-05 16:51 | 35.53393 | 34.92572 | 39992 ft | 452 kts | 295° |
| 2026-05-05 16:52 | 35.56205 | 34.85954 | 39992 ft | 452 kts | 295° |
| 2026-05-05 16:52 | 35.59050 | 34.79248 | 39991 ft | 452 kts | 295° |
| 2026-05-05 16:53 | 35.61934 | 34.72435 | 39996 ft | 452 kts | 295° |
| 2026-05-05 16:53 | 35.64837 | 34.65562 | 39990 ft | 453 kts | 295° |
| 2026-05-05 16:54 | 35.67738 | 34.58681 | 39990 ft | 453 kts | 295° |
| 2026-05-05 16:54 | 35.70637 | 34.51789 | 39989 ft | 453 kts | 295° |
| 2026-05-05 16:55 | 35.73533 | 34.44892 | 39984 ft | 454 kts | 295° |
| 2026-05-05 16:55 | 35.76427 | 34.37983 | 39983 ft | 455 kts | 295° |
| 2026-05-05 16:56 | 35.79322 | 34.31059 | 39978 ft | 455 kts | 295° |
| 2026-05-05 16:56 | 35.82214 | 34.24126 | 39980 ft | 455 kts | 295° |
| 2026-05-05 16:57 | 35.85103 | 34.17185 | 39997 ft | 456 kts | 295° |
| 2026-05-05 16:57 | 35.88004 | 34.10202 | 39978 ft | 459 kts | 295° |
| 2026-05-05 16:58 | 35.90916 | 34.03177 | 39976 ft | 460 kts | 295° |
| 2026-05-05 16:58 | 35.93627 | 33.96104 | 39972 ft | 459 kts | 290° |
| 2026-05-05 16:59 | 35.95938 | 33.88775 | 39983 ft | 458 kts | 289° |
| 2026-05-05 16:59 | 35.98224 | 33.81439 | 39972 ft | 458 kts | 290° |
| 2026-05-05 17:00 | 36.00571 | 33.74129 | 39968 ft | 458 kts | 290° |
| 2026-05-05 17:00 | 36.02947 | 33.66838 | 39987 ft | 458 kts | 291° |
| 2026-05-05 17:01 | 36.05324 | 33.59547 | 39974 ft | 457 kts | 291° |
| 2026-05-05 17:01 | 36.07693 | 33.52253 | 39972 ft | 457 kts | 291° |
| 2026-05-05 17:02 | 36.10058 | 33.44950 | 39979 ft | 457 kts | 291° |
| 2026-05-05 17:02 | 36.12415 | 33.37647 | 39976 ft | 457 kts | 291° |
| 2026-05-05 17:03 | 36.14769 | 33.30338 | 39977 ft | 457 kts | 291° |
| 2026-05-05 17:03 | 36.17122 | 33.23026 | 39978 ft | 458 kts | 291° |
| 2026-05-05 17:04 | 36.19469 | 33.15705 | 39981 ft | 457 kts | 291° |
| 2026-05-05 17:04 | 36.21797 | 33.08421 | 39980 ft | 458 kts | 291° |
| 2026-05-05 17:05 | 36.24138 | 33.01079 | 39984 ft | 458 kts | 291° |
| 2026-05-05 17:05 | 36.26476 | 32.93733 | 39986 ft | 459 kts | 291° |
| 2026-05-05 17:06 | 36.28809 | 32.86383 | 39990 ft | 458 kts | 291° |
| 2026-05-05 17:06 | 36.31134 | 32.79040 | 40005 ft | 457 kts | 291° |
| 2026-05-05 17:07 | 36.33454 | 32.71695 | 40004 ft | 457 kts | 291° |
| 2026-05-05 17:07 | 36.35776 | 32.64352 | 39989 ft | 457 kts | 291° |
| 2026-05-05 17:08 | 36.38100 | 32.57009 | 39998 ft | 457 kts | 291° |
| 2026-05-05 17:08 | 36.40405 | 32.49705 | 39996 ft | 457 kts | 291° |
| 2026-05-05 17:09 | 36.42718 | 32.42351 | 39995 ft | 457 kts | 291° |
| 2026-05-05 17:09 | 36.45025 | 32.34999 | 39994 ft | 457 kts | 291° |
| 2026-05-05 17:10 | 36.47326 | 32.27644 | 39994 ft | 457 kts | 291° |
| 2026-05-05 17:10 | 36.49624 | 32.20283 | 40000 ft | 457 kts | 291° |
| 2026-05-05 17:11 | 36.51918 | 32.12916 | 40002 ft | 457 kts | 291° |
| 2026-05-05 17:11 | 36.54207 | 32.05547 | 39998 ft | 457 kts | 291° |
| 2026-05-05 17:12 | 36.56469 | 31.98217 | 39996 ft | 457 kts | 291° |
| 2026-05-05 17:12 | 36.58727 | 31.90834 | 39995 ft | 457 kts | 291° |
| 2026-05-05 17:13 | 36.60982 | 31.83447 | 40005 ft | 457 kts | 291° |
| 2026-05-05 17:13 | 36.63237 | 31.76055 | 39990 ft | 457 kts | 291° |
| 2026-05-05 17:14 | 36.65483 | 31.68674 | 39999 ft | 456 kts | 291° |
| 2026-05-05 17:14 | 36.67363 | 31.62482 | 39995 ft | 456 kts | 291° |
| 2026-05-05 17:15 | 36.69645 | 31.55104 | 39983 ft | 456 kts | 292° |
| 2026-05-05 17:15 | 36.72074 | 31.47862 | 39986 ft | 456 kts | 293° |
| 2026-05-05 17:16 | 36.74538 | 31.40585 | 39990 ft | 456 kts | 293° |
| 2026-05-05 17:16 | 36.76884 | 31.33243 | 39988 ft | 456 kts | 290° |
| 2026-05-05 17:17 | 36.78979 | 31.25789 | 39980 ft | 456 kts | 289° |
| 2026-05-05 17:17 | 36.81057 | 31.18310 | 39982 ft | 456 kts | 290° |
| 2026-05-05 17:18 | 36.83166 | 31.10850 | 39981 ft | 456 kts | 290° |
| 2026-05-05 17:18 | 36.85288 | 31.03409 | 39974 ft | 456 kts | 290° |
| 2026-05-05 17:19 | 36.87413 | 30.95948 | 39963 ft | 456 kts | 290° |
| 2026-05-05 17:19 | 36.89532 | 30.88485 | 39965 ft | 456 kts | 290° |
| 2026-05-05 17:20 | 36.91648 | 30.81069 | 39966 ft | 456 kts | 292° |
| 2026-05-05 17:20 | 36.94281 | 30.73859 | 39967 ft | 456 kts | 296° |
| 2026-05-05 17:21 | 36.97061 | 30.66730 | 39968 ft | 456 kts | 296° |
| 2026-05-05 17:22 | 37.01264 | 30.56054 | 39974 ft | 456 kts | 296° |
| 2026-05-05 17:22 | 37.04055 | 30.48922 | 39984 ft | 456 kts | 296° |
| 2026-05-05 17:23 | 37.06835 | 30.41787 | 39988 ft | 456 kts | 296° |
| 2026-05-05 17:23 | 37.09611 | 30.34644 | 39997 ft | 456 kts | 296° |
| 2026-05-05 17:24 | 37.12360 | 30.27555 | 40013 ft | 455 kts | 296° |
| 2026-05-05 17:24 | 37.15120 | 30.20422 | 40010 ft | 455 kts | 296° |
| 2026-05-05 17:25 | 37.17878 | 30.13279 | 40016 ft | 455 kts | 296° |
| 2026-05-05 17:25 | 37.20613 | 30.06114 | 40018 ft | 455 kts | 295° |
| 2026-05-05 17:26 | 37.23054 | 29.98792 | 40025 ft | 455 kts | 292° |
| 2026-05-05 17:26 | 37.25312 | 29.91370 | 40032 ft | 455 kts | 291° |
| 2026-05-05 17:27 | 37.27587 | 29.83952 | 40031 ft | 455 kts | 292° |
| 2026-05-05 17:27 | 37.29898 | 29.76552 | 40039 ft | 455 kts | 292° |
| 2026-05-05 17:28 | 37.32207 | 29.69201 | 40044 ft | 455 kts | 292° |
| 2026-05-05 17:28 | 37.34530 | 29.61798 | 40042 ft | 455 kts | 292° |
| 2026-05-05 17:29 | 37.36845 | 29.54386 | 40043 ft | 455 kts | 292° |
| 2026-05-05 17:29 | 37.39153 | 29.46974 | 40041 ft | 454 kts | 292° |
| 2026-05-05 17:30 | 37.41448 | 29.39585 | 40043 ft | 453 kts | 292° |
| 2026-05-05 17:30 | 37.43742 | 29.32194 | 40050 ft | 453 kts | 292° |
| 2026-05-05 17:31 | 37.46025 | 29.24797 | 40044 ft | 453 kts | 292° |
| 2026-05-05 17:31 | 37.48300 | 29.17408 | 40048 ft | 452 kts | 292° |
| 2026-05-05 17:32 | 37.50568 | 29.10027 | 40048 ft | 452 kts | 292° |
| 2026-05-05 17:32 | 37.52827 | 29.02654 | 40047 ft | 451 kts | 292° |
| 2026-05-05 17:33 | 37.55086 | 28.95268 | 40044 ft | 452 kts | 292° |
| 2026-05-05 17:33 | 37.57325 | 28.87925 | 40045 ft | 452 kts | 292° |
| 2026-05-05 17:34 | 37.59578 | 28.80517 | 40045 ft | 452 kts | 292° |
| 2026-05-05 17:34 | 37.61825 | 28.73107 | 40046 ft | 453 kts | 292° |
| 2026-05-05 17:35 | 37.64069 | 28.65692 | 40031 ft | 453 kts | 292° |
| 2026-05-05 17:35 | 37.66312 | 28.58271 | 40042 ft | 452 kts | 292° |
| 2026-05-05 17:36 | 37.68545 | 28.50842 | 40041 ft | 453 kts | 292° |
| 2026-05-05 17:36 | 37.70759 | 28.43462 | 40037 ft | 452 kts | 292° |
| 2026-05-05 17:37 | 37.72982 | 28.36032 | 40029 ft | 452 kts | 292° |
| 2026-05-05 17:37 | 37.75199 | 28.28602 | 40032 ft | 451 kts | 292° |
| 2026-05-05 17:38 | 37.77402 | 28.21196 | 40037 ft | 450 kts | 292° |
| 2026-05-05 17:38 | 37.79604 | 28.13780 | 40031 ft | 451 kts | 292° |
| 2026-05-05 17:39 | 37.81803 | 28.06356 | 40021 ft | 451 kts | 292° |
| 2026-05-05 17:39 | 37.83982 | 27.98977 | 40021 ft | 451 kts | 292° |
| 2026-05-05 17:40 | 37.86172 | 27.91540 | 40020 ft | 451 kts | 292° |
| 2026-05-05 17:40 | 37.88357 | 27.84100 | 40023 ft | 451 kts | 291° |
| 2026-05-05 17:41 | 37.90541 | 27.76662 | 40023 ft | 451 kts | 291° |
| 2026-05-05 17:41 | 37.92715 | 27.69211 | 40026 ft | 452 kts | 291° |
| 2026-05-05 17:42 | 37.94890 | 27.61732 | 40032 ft | 453 kts | 291° |
| 2026-05-05 17:42 | 37.97065 | 27.54241 | 40027 ft | 453 kts | 291° |
| 2026-05-05 17:43 | 37.99233 | 27.46755 | 40022 ft | 453 kts | 291° |
| 2026-05-05 17:43 | 38.01395 | 27.39267 | 40026 ft | 452 kts | 291° |
| 2026-05-05 17:44 | 38.03554 | 27.31788 | 40026 ft | 451 kts | 291° |
| 2026-05-05 17:44 | 38.05701 | 27.24308 | 40026 ft | 451 kts | 291° |
| 2026-05-05 17:45 | 38.07827 | 27.16878 | 40016 ft | 451 kts | 291° |
| 2026-05-05 17:45 | 38.09961 | 27.09399 | 40025 ft | 449 kts | 291° |
| 2026-05-05 17:46 | 38.12085 | 27.01943 | 40027 ft | 449 kts | 291° |
| 2026-05-05 17:46 | 38.14206 | 26.94475 | 40027 ft | 449 kts | 291° |
| 2026-05-05 17:47 | 38.16324 | 26.87009 | 40028 ft | 449 kts | 291° |
| 2026-05-05 17:47 | 38.18429 | 26.79552 | 40033 ft | 448 kts | 291° |
| 2026-05-05 17:48 | 38.20511 | 26.72156 | 40036 ft | 447 kts | 291° |
| 2026-05-05 17:48 | 38.22603 | 26.64703 | 40037 ft | 447 kts | 291° |
| 2026-05-05 17:49 | 38.24690 | 26.57252 | 40038 ft | 447 kts | 291° |
| 2026-05-05 17:49 | 38.26771 | 26.49801 | 40043 ft | 447 kts | 291° |
| 2026-05-05 17:50 | 38.28846 | 26.42348 | 40042 ft | 446 kts | 291° |
| 2026-05-05 17:50 | 38.30915 | 26.34900 | 40045 ft | 446 kts | 291° |
| 2026-05-05 17:51 | 38.32979 | 26.27443 | 40046 ft | 446 kts | 291° |
| 2026-05-05 17:51 | 38.35214 | 26.20085 | 40046 ft | 444 kts | 298° |
| 2026-05-05 17:52 | 38.38114 | 26.13139 | 40047 ft | 443 kts | 300° |
| 2026-05-05 17:52 | 38.41128 | 26.06283 | 40049 ft | 443 kts | 301° |
| 2026-05-05 17:53 | 38.44158 | 25.99434 | 40049 ft | 443 kts | 301° |
| 2026-05-05 17:53 | 38.47157 | 25.92614 | 40050 ft | 444 kts | 301° |
| 2026-05-05 17:54 | 38.50166 | 25.85737 | 40053 ft | 444 kts | 301° |
| 2026-05-05 17:54 | 38.53173 | 25.78842 | 40053 ft | 444 kts | 300° |
| 2026-05-05 17:55 | 38.56176 | 25.71944 | 40052 ft | 444 kts | 300° |
| 2026-05-05 17:55 | 38.59175 | 25.65038 | 40056 ft | 444 kts | 300° |
| 2026-05-05 17:56 | 38.62170 | 25.58127 | 40055 ft | 444 kts | 300° |
| 2026-05-05 17:56 | 38.65162 | 25.51210 | 40058 ft | 444 kts | 300° |
| 2026-05-05 17:57 | 38.68130 | 25.44332 | 40056 ft | 444 kts | 300° |
| 2026-05-05 17:57 | 38.71118 | 25.37394 | 40059 ft | 446 kts | 300° |
| 2026-05-05 17:58 | 38.74110 | 25.30430 | 40051 ft | 447 kts | 300° |
| 2026-05-05 17:58 | 38.77099 | 25.23457 | 40056 ft | 446 kts | 300° |
| 2026-05-05 17:59 | 38.80083 | 25.16479 | 40060 ft | 446 kts | 300° |
| 2026-05-05 17:59 | 38.83063 | 25.09497 | 40051 ft | 446 kts | 300° |
| 2026-05-05 18:00 | 38.86039 | 25.02507 | 40054 ft | 446 kts | 300° |
| 2026-05-05 18:00 | 38.89011 | 24.95513 | 40062 ft | 445 kts | 300° |
| 2026-05-05 18:01 | 38.91970 | 24.88532 | 40062 ft | 445 kts | 300° |
| 2026-05-05 18:01 | 38.94903 | 24.81597 | 40045 ft | 445 kts | 300° |
| 2026-05-05 18:02 | 38.97852 | 24.74610 | 40051 ft | 445 kts | 300° |
| 2026-05-05 18:02 | 39.00798 | 24.67613 | 40062 ft | 445 kts | 300° |
| 2026-05-05 18:03 | 39.03740 | 24.60611 | 40057 ft | 445 kts | 300° |
| 2026-05-05 18:03 | 39.06677 | 24.53604 | 40055 ft | 445 kts | 300° |
| 2026-05-05 18:04 | 39.09612 | 24.46587 | 40040 ft | 445 kts | 300° |
| 2026-05-05 18:04 | 39.12540 | 24.39569 | 40040 ft | 445 kts | 300° |
| 2026-05-05 18:05 | 39.15465 | 24.32545 | 40041 ft | 445 kts | 300° |
| 2026-05-05 18:05 | 39.18368 | 24.25558 | 40039 ft | 445 kts | 300° |
| 2026-05-05 18:06 | 39.21286 | 24.18516 | 40054 ft | 445 kts | 300° |
| 2026-05-05 18:06 | 39.24199 | 24.11470 | 40039 ft | 445 kts | 300° |
| 2026-05-05 18:07 | 39.27107 | 24.04423 | 40046 ft | 445 kts | 300° |
| 2026-05-05 18:07 | 39.30008 | 23.97374 | 40042 ft | 444 kts | 300° |
| 2026-05-05 18:08 | 39.32900 | 23.90333 | 40039 ft | 444 kts | 300° |
| 2026-05-05 18:08 | 39.35788 | 23.83283 | 40033 ft | 444 kts | 300° |
| 2026-05-05 18:09 | 39.38673 | 23.76227 | 40022 ft | 444 kts | 300° |
| 2026-05-05 18:09 | 39.41551 | 23.69171 | 40025 ft | 443 kts | 300° |
| 2026-05-05 18:10 | 39.44401 | 23.62166 | 40025 ft | 443 kts | 300° |
| 2026-05-05 18:10 | 39.47266 | 23.55108 | 40022 ft | 443 kts | 300° |
| 2026-05-05 18:11 | 39.50127 | 23.48045 | 40022 ft | 443 kts | 299° |
| 2026-05-05 18:11 | 39.52984 | 23.40977 | 40015 ft | 443 kts | 299° |
| 2026-05-05 18:12 | 39.55832 | 23.33910 | 40024 ft | 442 kts | 299° |
| 2026-05-05 18:12 | 39.58674 | 23.26845 | 40030 ft | 442 kts | 299° |
| 2026-05-05 18:13 | 39.61514 | 23.19770 | 40024 ft | 443 kts | 299° |
| 2026-05-05 18:13 | 39.64334 | 23.12724 | 40024 ft | 443 kts | 299° |
| 2026-05-05 18:14 | 39.67168 | 23.05629 | 40018 ft | 442 kts | 299° |
| 2026-05-05 18:14 | 39.69990 | 22.98547 | 40021 ft | 441 kts | 299° |
| 2026-05-05 18:15 | 39.72803 | 22.91471 | 40020 ft | 441 kts | 299° |
| 2026-05-05 18:15 | 39.75612 | 22.84389 | 40017 ft | 441 kts | 299° |
| 2026-05-05 18:16 | 39.77944 | 22.78497 | 40016 ft | 441 kts | 299° |
| 2026-05-05 18:16 | 39.80743 | 22.71410 | 40023 ft | 440 kts | 299° |
| 2026-05-05 18:17 | 39.83529 | 22.64336 | 40032 ft | 439 kts | 299° |
| 2026-05-05 18:17 | 39.86308 | 22.57266 | 40029 ft | 439 kts | 299° |
| 2026-05-05 18:18 | 39.89083 | 22.50191 | 40027 ft | 439 kts | 299° |
| 2026-05-05 18:18 | 39.91857 | 22.43102 | 40030 ft | 440 kts | 299° |
| 2026-05-05 18:19 | 39.94632 | 22.35994 | 40040 ft | 440 kts | 299° |
| 2026-05-05 18:19 | 39.97403 | 22.28877 | 40046 ft | 440 kts | 299° |
| 2026-05-05 18:20 | 40.00150 | 22.21805 | 40045 ft | 440 kts | 299° |
| 2026-05-05 18:20 | 40.02912 | 22.14674 | 40052 ft | 439 kts | 299° |
| 2026-05-05 18:21 | 40.05664 | 22.07555 | 40049 ft | 440 kts | 298° |
| 2026-05-05 18:21 | 40.08424 | 22.00401 | 40050 ft | 441 kts | 298° |
| 2026-05-05 18:22 | 40.11184 | 21.93229 | 40055 ft | 442 kts | 298° |
| 2026-05-05 18:22 | 40.13939 | 21.86048 | 40050 ft | 442 kts | 298° |
| 2026-05-05 18:23 | 40.16690 | 21.78865 | 40043 ft | 442 kts | 298° |
| 2026-05-05 18:23 | 40.19422 | 21.71710 | 40049 ft | 443 kts | 298° |
| 2026-05-05 18:24 | 40.22172 | 21.64494 | 40052 ft | 443 kts | 298° |
| 2026-05-05 18:24 | 40.24918 | 21.57269 | 40049 ft | 443 kts | 298° |
| 2026-05-05 18:25 | 40.27662 | 21.50032 | 40061 ft | 443 kts | 298° |
| 2026-05-05 18:25 | 40.30397 | 21.42800 | 40061 ft | 443 kts | 298° |
| 2026-05-05 18:26 | 40.33128 | 21.35561 | 40072 ft | 443 kts | 298° |
| 2026-05-05 18:26 | 40.35856 | 21.28314 | 40067 ft | 443 kts | 298° |
| 2026-05-05 18:27 | 40.38581 | 21.21057 | 40077 ft | 443 kts | 298° |
| 2026-05-05 18:27 | 40.41300 | 21.13795 | 40070 ft | 443 kts | 298° |
| 2026-05-05 18:28 | 40.45372 | 21.02889 | 40088 ft | 443 kts | 297° |
| 2026-05-05 18:28 | 40.47680 | 20.95438 | 40098 ft | 446 kts | 287° |
| 2026-05-05 18:29 | 40.48685 | 20.87378 | 40094 ft | 449 kts | 279° |
| 2026-05-05 18:29 | 40.49265 | 20.79200 | 40092 ft | 450 kts | 277° |
| 2026-05-05 18:30 | 40.49775 | 20.71024 | 40111 ft | 447 kts | 277° |
| 2026-05-05 18:30 | 40.50288 | 20.62890 | 40110 ft | 447 kts | 277° |
| 2026-05-05 18:31 | 40.50813 | 20.54759 | 40115 ft | 446 kts | 277° |
| 2026-05-05 18:31 | 40.51340 | 20.46633 | 40106 ft | 446 kts | 277° |
| 2026-05-05 18:32 | 40.51861 | 20.38509 | 40115 ft | 446 kts | 277° |
| 2026-05-05 18:32 | 40.52375 | 20.30399 | 40113 ft | 445 kts | 277° |
| 2026-05-05 18:33 | 40.52878 | 20.22337 | 40114 ft | 445 kts | 277° |
| 2026-05-05 18:33 | 40.53381 | 20.14229 | 40110 ft | 445 kts | 277° |
| 2026-05-05 18:34 | 40.53877 | 20.06115 | 40104 ft | 445 kts | 276° |
| 2026-05-05 18:34 | 40.54368 | 19.97999 | 40105 ft | 445 kts | 276° |
| 2026-05-05 18:35 | 40.54852 | 19.89888 | 40097 ft | 445 kts | 276° |
| 2026-05-05 18:35 | 40.55331 | 19.81771 | 40097 ft | 445 kts | 276° |
| 2026-05-05 18:36 | 40.55804 | 19.73651 | 40092 ft | 446 kts | 276° |
| 2026-05-05 18:36 | 40.56273 | 19.65525 | 40091 ft | 446 kts | 276° |
| 2026-05-05 18:37 | 40.56733 | 19.57439 | 40093 ft | 446 kts | 276° |
| 2026-05-05 18:37 | 40.57190 | 19.49310 | 40086 ft | 446 kts | 276° |
| 2026-05-05 18:38 | 40.57641 | 19.41176 | 40089 ft | 446 kts | 276° |
| 2026-05-05 18:38 | 40.58086 | 19.33052 | 40088 ft | 445 kts | 276° |
| 2026-05-05 18:39 | 40.58521 | 19.25014 | 40093 ft | 445 kts | 276° |
| 2026-05-05 18:39 | 40.58952 | 19.16931 | 40083 ft | 445 kts | 276° |
| 2026-05-05 18:40 | 40.59379 | 19.08838 | 40090 ft | 445 kts | 276° |
| 2026-05-05 18:40 | 40.59796 | 19.00793 | 40083 ft | 444 kts | 276° |
| 2026-05-05 18:41 | 40.60291 | 18.92707 | 40076 ft | 443 kts | 277° |
| 2026-05-05 18:41 | 40.60888 | 18.84634 | 40070 ft | 443 kts | 278° |
| 2026-05-05 18:42 | 40.61475 | 18.76555 | 40069 ft | 443 kts | 277° |
| 2026-05-05 18:42 | 40.62038 | 18.68482 | 40068 ft | 443 kts | 277° |
| 2026-05-05 18:43 | 40.62587 | 18.60401 | 40074 ft | 443 kts | 277° |
| 2026-05-05 18:43 | 40.63128 | 18.52329 | 40065 ft | 443 kts | 277° |
| 2026-05-05 18:44 | 40.63657 | 18.44384 | 40071 ft | 443 kts | 277° |
| 2026-05-05 18:44 | 40.64188 | 18.36314 | 40055 ft | 441 kts | 277° |
| 2026-05-05 18:45 | 40.64712 | 18.28274 | 40061 ft | 440 kts | 277° |
| 2026-05-05 18:45 | 40.65230 | 18.20244 | 40053 ft | 440 kts | 277° |
| 2026-05-05 18:46 | 40.65739 | 18.12264 | 40050 ft | 440 kts | 277° |
| 2026-05-05 18:46 | 40.66246 | 18.04229 | 40052 ft | 440 kts | 277° |
| 2026-05-05 18:47 | 40.66747 | 17.96201 | 40046 ft | 440 kts | 277° |
| 2026-05-05 18:47 | 40.67242 | 17.88168 | 40050 ft | 440 kts | 277° |
| 2026-05-05 18:48 | 40.67732 | 17.80132 | 40060 ft | 440 kts | 277° |
| 2026-05-05 18:48 | 40.68216 | 17.72097 | 40068 ft | 440 kts | 276° |
| 2026-05-05 18:49 | 40.68693 | 17.64092 | 40072 ft | 437 kts | 276° |
| 2026-05-05 18:49 | 40.69163 | 17.56099 | 40065 ft | 437 kts | 276° |
| 2026-05-05 18:50 | 40.69627 | 17.48117 | 40067 ft | 437 kts | 276° |
| 2026-05-05 18:50 | 40.70087 | 17.40133 | 40075 ft | 437 kts | 276° |
| 2026-05-05 18:51 | 40.70536 | 17.32214 | 40075 ft | 436 kts | 276° |
| 2026-05-05 18:51 | 40.70982 | 17.24248 | 40070 ft | 435 kts | 276° |
| 2026-05-05 18:52 | 40.71423 | 17.16286 | 40073 ft | 435 kts | 276° |
| 2026-05-05 18:52 | 40.71859 | 17.08323 | 40073 ft | 436 kts | 276° |
| 2026-05-05 18:53 | 40.72289 | 17.00361 | 40077 ft | 435 kts | 276° |
| 2026-05-05 18:53 | 40.72713 | 16.92397 | 40070 ft | 435 kts | 276° |
| 2026-05-05 18:54 | 40.73132 | 16.84435 | 40066 ft | 436 kts | 276° |
| 2026-05-05 18:54 | 40.73546 | 16.76465 | 40070 ft | 436 kts | 276° |
| 2026-05-05 18:55 | 40.73955 | 16.68494 | 40074 ft | 436 kts | 275° |
| 2026-05-05 18:55 | 40.74358 | 16.60516 | 40072 ft | 436 kts | 275° |
| 2026-05-05 18:56 | 40.74753 | 16.52589 | 40064 ft | 436 kts | 275° |
| 2026-05-05 18:56 | 40.75146 | 16.44598 | 40064 ft | 436 kts | 275° |
| 2026-05-05 18:57 | 40.75532 | 16.36609 | 40064 ft | 437 kts | 275° |
| 2026-05-05 18:57 | 40.75914 | 16.28618 | 40065 ft | 436 kts | 275° |
| 2026-05-05 18:58 | 40.76290 | 16.20633 | 40064 ft | 436 kts | 275° |
| 2026-05-05 18:58 | 40.76660 | 16.12649 | 40061 ft | 436 kts | 275° |
| 2026-05-05 18:59 | 40.77023 | 16.04712 | 40062 ft | 436 kts | 275° |
| 2026-05-05 18:59 | 40.77382 | 15.96719 | 40063 ft | 436 kts | 274° |
| 2026-05-05 19:00 | 40.77736 | 15.88723 | 40066 ft | 437 kts | 274° |
| 2026-05-05 19:00 | 40.78085 | 15.80712 | 40068 ft | 437 kts | 274° |
| 2026-05-05 19:01 | 40.78429 | 15.72704 | 40065 ft | 437 kts | 274° |
| 2026-05-05 19:01 | 40.78767 | 15.64688 | 40064 ft | 438 kts | 274° |
| 2026-05-05 19:02 | 40.79099 | 15.56700 | 40073 ft | 439 kts | 274° |
| 2026-05-05 19:02 | 40.79428 | 15.48644 | 40069 ft | 440 kts | 274° |
| 2026-05-05 19:03 | 40.79751 | 15.40575 | 40072 ft | 440 kts | 274° |
| 2026-05-05 19:03 | 40.80069 | 15.32516 | 40077 ft | 440 kts | 274° |
| 2026-05-05 19:04 | 40.80380 | 15.24453 | 40076 ft | 440 kts | 274° |
| 2026-05-05 19:04 | 40.80687 | 15.16385 | 40077 ft | 440 kts | 273° |
| 2026-05-05 19:05 | 40.80989 | 15.08303 | 40078 ft | 441 kts | 273° |
| 2026-05-05 19:05 | 40.81285 | 15.00230 | 40079 ft | 441 kts | 273° |
| 2026-05-05 19:06 | 40.81575 | 14.92147 | 40088 ft | 441 kts | 273° |
| 2026-05-05 19:06 | 40.81859 | 14.84079 | 40074 ft | 440 kts | 273° |
| 2026-05-05 19:07 | 40.82090 | 14.77381 | 40079 ft | 439 kts | 273° |
| 2026-05-05 19:07 | 40.82408 | 14.68010 | 40076 ft | 439 kts | 272° |
| 2026-05-05 19:08 | 40.82675 | 14.59951 | 40078 ft | 439 kts | 272° |
| 2026-05-05 19:08 | 40.82936 | 14.51893 | 40075 ft | 440 kts | 272° |
| 2026-05-05 19:09 | 40.83192 | 14.43826 | 40077 ft | 440 kts | 272° |
| 2026-05-05 19:09 | 40.83442 | 14.35758 | 40075 ft | 440 kts | 272° |
| 2026-05-05 19:10 | 40.83686 | 14.27692 | 40074 ft | 440 kts | 272° |
| 2026-05-05 19:10 | 40.83926 | 14.19623 | 40079 ft | 440 kts | 272° |
| 2026-05-05 19:11 | 40.84158 | 14.11564 | 40075 ft | 439 kts | 272° |
| 2026-05-05 19:11 | 40.84386 | 14.03512 | 40074 ft | 439 kts | 272° |
| 2026-05-05 19:12 | 40.84606 | 13.95508 | 40072 ft | 439 kts | 272° |
| 2026-05-05 19:12 | 40.84822 | 13.87455 | 40073 ft | 439 kts | 272° |
| 2026-05-05 19:13 | 40.85031 | 13.79457 | 40069 ft | 440 kts | 271° |
| 2026-05-05 19:13 | 40.85236 | 13.71384 | 40071 ft | 440 kts | 271° |
| 2026-05-05 19:14 | 40.85426 | 13.63726 | 40068 ft | 441 kts | 271° |
| 2026-05-05 19:14 | 40.85613 | 13.55966 | 40070 ft | 441 kts | 271° |
| 2026-05-05 19:15 | 40.85761 | 13.49663 | 40073 ft | 441 kts | 271° |
| 2026-05-05 19:15 | 40.85965 | 13.40724 | 40071 ft | 441 kts | 271° |
| 2026-05-05 19:16 | 40.86140 | 13.32822 | 40070 ft | 441 kts | 271° |
| 2026-05-05 19:16 | 40.86301 | 13.25289 | 40071 ft | 441 kts | 271° |
| 2026-05-05 19:17 | 40.86469 | 13.17186 | 40069 ft | 441 kts | 271° |
| 2026-05-05 19:17 | 40.86605 | 13.10450 | 40072 ft | 441 kts | 271° |
| 2026-05-05 19:18 | 40.86762 | 13.02356 | 40069 ft | 440 kts | 271° |
| 2026-05-05 19:18 | 40.86914 | 12.94269 | 40066 ft | 440 kts | 271° |
| 2026-05-05 19:19 | 40.87060 | 12.86181 | 40065 ft | 440 kts | 271° |
| 2026-05-05 19:19 | 40.87201 | 12.78090 | 40063 ft | 440 kts | 271° |
| 2026-05-05 19:20 | 40.87336 | 12.70007 | 40055 ft | 440 kts | 270° |
| 2026-05-05 19:20 | 40.87465 | 12.61933 | 40056 ft | 439 kts | 270° |
| 2026-05-05 19:21 | 40.87588 | 12.53865 | 40035 ft | 439 kts | 270° |
| 2026-05-05 19:21 | 40.87705 | 12.45781 | 40045 ft | 440 kts | 270° |
| 2026-05-05 19:22 | 40.87817 | 12.37735 | 40055 ft | 441 kts | 270° |
| 2026-05-05 19:22 | 40.87924 | 12.29655 | 40045 ft | 440 kts | 270° |
| 2026-05-05 19:23 | 40.88025 | 12.21579 | 40037 ft | 440 kts | 270° |
| 2026-05-05 19:23 | 40.88120 | 12.13503 | 40041 ft | 440 kts | 270° |
| 2026-05-05 19:24 | 40.88209 | 12.05424 | 40041 ft | 440 kts | 270° |
| 2026-05-05 19:24 | 40.88294 | 11.97346 | 40036 ft | 440 kts | 269° |
| 2026-05-05 19:25 | 40.88372 | 11.89267 | 40029 ft | 440 kts | 269° |
| 2026-05-05 19:25 | 40.88444 | 11.81187 | 40033 ft | 440 kts | 269° |
| 2026-05-05 19:26 | 40.88511 | 11.73155 | 40013 ft | 440 kts | 269° |
| 2026-05-05 19:26 | 40.88573 | 11.65064 | 40032 ft | 440 kts | 269° |
| 2026-05-05 19:27 | 40.88629 | 11.56994 | 40016 ft | 439 kts | 269° |
| 2026-05-05 19:27 | 40.88679 | 11.48933 | 40017 ft | 439 kts | 269° |
| 2026-05-05 19:28 | 40.88723 | 11.40873 | 40010 ft | 439 kts | 269° |
| 2026-05-05 19:28 | 40.88762 | 11.32809 | 40011 ft | 439 kts | 269° |
| 2026-05-05 19:29 | 40.88795 | 11.24750 | 40007 ft | 439 kts | 269° |
| 2026-05-05 19:29 | 40.88822 | 11.16726 | 40008 ft | 440 kts | 269° |
| 2026-05-05 19:30 | 40.88844 | 11.08647 | 40009 ft | 440 kts | 269° |
| 2026-05-05 19:30 | 40.88861 | 11.00566 | 40003 ft | 440 kts | 268° |
| 2026-05-05 19:31 | 40.88872 | 10.92482 | 40002 ft | 440 kts | 268° |
| 2026-05-05 19:31 | 40.88877 | 10.84398 | 39996 ft | 440 kts | 268° |
| 2026-05-05 19:32 | 40.88876 | 10.76316 | 39996 ft | 440 kts | 268° |
| 2026-05-05 19:32 | 40.88870 | 10.68231 | 39993 ft | 440 kts | 268° |
| 2026-05-05 19:33 | 40.88858 | 10.60148 | 39994 ft | 440 kts | 268° |
| 2026-05-05 19:33 | 40.88841 | 10.52070 | 39989 ft | 439 kts | 268° |
| 2026-05-05 19:34 | 40.88818 | 10.43998 | 39985 ft | 439 kts | 268° |
| 2026-05-05 19:35 | 40.88773 | 10.31950 | 39985 ft | 439 kts | 268° |
| 2026-05-05 19:35 | 40.88736 | 10.23883 | 39978 ft | 440 kts | 268° |
| 2026-05-05 19:36 | 40.88693 | 10.15802 | 39984 ft | 440 kts | 268° |
| 2026-05-05 19:36 | 40.88645 | 10.07730 | 39977 ft | 439 kts | 267° |
| 2026-05-05 19:37 | 40.88591 | 9.99653 | 39977 ft | 439 kts | 267° |
| 2026-05-05 19:37 | 40.88532 | 9.91581 | 39970 ft | 439 kts | 267° |
| 2026-05-05 19:38 | 40.88466 | 9.83511 | 39970 ft | 439 kts | 267° |
| 2026-05-05 19:38 | 40.88396 | 9.75451 | 39967 ft | 438 kts | 267° |
| 2026-05-05 19:39 | 40.88320 | 9.67393 | 39968 ft | 438 kts | 267° |
| 2026-05-05 19:39 | 40.88238 | 9.59405 | 39966 ft | 438 kts | 267° |
| 2026-05-05 19:40 | 40.88151 | 9.51356 | 39965 ft | 438 kts | 267° |
| 2026-05-05 19:40 | 40.88058 | 9.43305 | 39972 ft | 437 kts | 267° |
| 2026-05-05 19:41 | 40.87960 | 9.35296 | 39974 ft | 435 kts | 267° |
| 2026-05-05 19:41 | 40.87856 | 9.27300 | 39974 ft | 435 kts | 267° |
| 2026-05-05 19:42 | 40.87747 | 9.19300 | 39971 ft | 435 kts | 267° |
| 2026-05-05 19:42 | 40.87634 | 9.11311 | 39972 ft | 435 kts | 267° |
| 2026-05-05 19:43 | 40.87514 | 9.03322 | 39968 ft | 434 kts | 266° |
| 2026-05-05 19:43 | 40.87388 | 8.95358 | 39969 ft | 433 kts | 266° |
| 2026-05-05 19:44 | 40.87258 | 8.87456 | 39965 ft | 433 kts | 266° |
| 2026-05-05 19:44 | 40.87122 | 8.79497 | 39967 ft | 434 kts | 266° |
| 2026-05-05 19:45 | 40.86981 | 8.71531 | 39971 ft | 433 kts | 266° |
| 2026-05-05 19:45 | 40.86834 | 8.63568 | 39961 ft | 434 kts | 266° |
| 2026-05-05 19:46 | 40.86682 | 8.55602 | 39963 ft | 434 kts | 266° |
| 2026-05-05 19:46 | 40.86524 | 8.47658 | 39958 ft | 434 kts | 266° |
| 2026-05-05 19:47 | 40.86361 | 8.39694 | 39961 ft | 434 kts | 266° |
| 2026-05-05 19:47 | 40.86192 | 8.31721 | 39962 ft | 434 kts | 266° |
| 2026-05-05 19:48 | 40.86019 | 8.23806 | 39959 ft | 434 kts | 265° |
| 2026-05-05 19:48 | 40.85842 | 8.15971 | 39961 ft | 434 kts | 265° |
| 2026-05-05 19:49 | 40.85884 | 8.07998 | 39958 ft | 435 kts | 270° |
| 2026-05-05 19:49 | 40.86211 | 8.00138 | 39957 ft | 436 kts | 270° |
| 2026-05-05 19:50 | 40.86661 | 7.92655 | 39952 ft | 436 kts | 272° |
| 2026-05-05 19:50 | 40.87224 | 7.85165 | 39949 ft | 434 kts | 272° |
| 2026-05-05 19:51 | 40.87794 | 7.77367 | 39950 ft | 434 kts | 272° |
| 2026-05-05 19:51 | 40.88322 | 7.69698 | 39945 ft | 434 kts | 272° |
| 2026-05-05 19:52 | 40.88834 | 7.62050 | 39949 ft | 434 kts | 271° |
| 2026-05-05 19:52 | 40.89347 | 7.54289 | 39951 ft | 434 kts | 271° |
| 2026-05-05 19:53 | 40.89863 | 7.46409 | 39948 ft | 433 kts | 271° |
| 2026-05-05 19:53 | 40.90378 | 7.38474 | 39947 ft | 433 kts | 271° |
| 2026-05-05 19:54 | 40.90888 | 7.30542 | 39946 ft | 433 kts | 271° |
| 2026-05-05 19:54 | 40.91380 | 7.22796 | 39944 ft | 433 kts | 271° |
| 2026-05-05 19:55 | 40.91878 | 7.14871 | 39947 ft | 433 kts | 271° |
| 2026-05-05 19:55 | 40.92368 | 7.06986 | 39941 ft | 433 kts | 271° |
| 2026-05-05 19:56 | 40.92856 | 6.99055 | 39937 ft | 433 kts | 271° |
| 2026-05-05 19:56 | 40.93338 | 6.91122 | 39935 ft | 433 kts | 271° |
| 2026-05-05 19:57 | 40.93816 | 6.83171 | 39949 ft | 433 kts | 271° |
| 2026-05-05 19:57 | 40.94287 | 6.75240 | 39932 ft | 432 kts | 270° |
| 2026-05-05 19:58 | 40.94752 | 6.67316 | 39932 ft | 432 kts | 270° |
| 2026-05-05 19:58 | 40.95212 | 6.59387 | 39929 ft | 432 kts | 270° |
| 2026-05-05 19:59 | 40.95666 | 6.51464 | 39921 ft | 432 kts | 270° |
| 2026-05-05 19:59 | 40.96115 | 6.43536 | 39926 ft | 432 kts | 270° |
| 2026-05-05 20:00 | 40.96558 | 6.35618 | 39923 ft | 432 kts | 270° |
| 2026-05-05 20:00 | 40.96993 | 6.27752 | 39925 ft | 431 kts | 270° |
| 2026-05-05 20:01 | 40.97424 | 6.19836 | 39921 ft | 431 kts | 270° |
| 2026-05-05 20:01 | 40.97850 | 6.11923 | 39919 ft | 431 kts | 270° |
| 2026-05-05 20:02 | 40.98272 | 6.03993 | 39918 ft | 432 kts | 270° |
| 2026-05-05 20:02 | 40.98688 | 5.96056 | 39917 ft | 433 kts | 270° |
| 2026-05-05 20:03 | 40.99099 | 5.88120 | 39911 ft | 433 kts | 270° |
| 2026-05-05 20:03 | 40.99457 | 5.81116 | 39911 ft | 433 kts | 270° |
| 2026-05-05 20:04 | 40.99856 | 5.73225 | 39911 ft | 433 kts | 270° |
| 2026-05-05 20:04 | 41.00252 | 5.65276 | 39911 ft | 433 kts | 270° |
| 2026-05-05 20:05 | 41.00642 | 5.57319 | 39911 ft | 433 kts | 270° |
| 2026-05-05 20:05 | 41.01028 | 5.49355 | 39911 ft | 433 kts | 270° |
| 2026-05-05 20:06 | 41.01408 | 5.41396 | 39912 ft | 433 kts | 270° |
| 2026-05-05 20:06 | 41.01795 | 5.33461 | 39597 ft | 431 kts | 270° |
| 2026-05-05 20:06 | 41.02004 | 5.29504 | 39382 ft | 430 kts | 270° |
| 2026-05-05 20:07 | 41.02215 | 5.25556 | 39160 ft | 430 kts | 270° |
| 2026-05-05 20:07 | 41.02425 | 5.21612 | 38934 ft | 429 kts | 270° |
| 2026-05-05 20:07 | 41.02631 | 5.17682 | 38708 ft | 427 kts | 270° |
| 2026-05-05 20:07 | 41.02834 | 5.13765 | 38383 ft | 425 kts | 270° |
| 2026-05-05 20:08 | 41.03031 | 5.09926 | 37819 ft | 421 kts | 269° |
| 2026-05-05 20:08 | 41.03227 | 5.06070 | 37189 ft | 419 kts | 269° |
| 2026-05-05 20:08 | 41.03420 | 5.02223 | 36545 ft | 418 kts | 269° |
| 2026-05-05 20:08 | 41.03610 | 4.98386 | 35898 ft | 417 kts | 268° |
| 2026-05-05 20:09 | 41.03798 | 4.94555 | 35244 ft | 417 kts | 268° |
| 2026-05-05 20:09 | 41.03986 | 4.90716 | 34520 ft | 418 kts | 268° |
| 2026-05-05 20:09 | 41.04172 | 4.86865 | 33710 ft | 420 kts | 268° |
| 2026-05-05 20:09 | 41.04358 | 4.83031 | 33181 ft | 414 kts | 268° |
| 2026-05-05 20:10 | 41.04543 | 4.79248 | 32653 ft | 409 kts | 267° |
| 2026-05-05 20:10 | 41.04738 | 4.75513 | 32130 ft | 405 kts | 269° |
| 2026-05-05 20:10 | 41.05054 | 4.71816 | 31612 ft | 402 kts | 271° |
| 2026-05-05 20:10 | 41.05453 | 4.68163 | 31129 ft | 401 kts | 272° |
| 2026-05-05 20:11 | 41.05876 | 4.64528 | 30924 ft | 407 kts | 272° |
| 2026-05-05 20:11 | 41.06751 | 4.57128 | 30455 ft | 403 kts | 272° |
| 2026-05-05 20:11 | 41.07173 | 4.53453 | 29809 ft | 403 kts | 272° |
| 2026-05-05 20:12 | 41.07582 | 4.49790 | 29508 ft | 401 kts | 271° |
| 2026-05-05 20:12 | 41.07980 | 4.46148 | 29229 ft | 398 kts | 271° |
| 2026-05-05 20:12 | 41.08366 | 4.42528 | 28936 ft | 396 kts | 271° |
| 2026-05-05 20:12 | 41.08748 | 4.38925 | 28644 ft | 394 kts | 271° |
| 2026-05-05 20:13 | 41.09128 | 4.35337 | 28376 ft | 392 kts | 271° |
| 2026-05-05 20:13 | 41.09506 | 4.31769 | 28085 ft | 390 kts | 271° |
| 2026-05-05 20:13 | 41.09881 | 4.28213 | 27802 ft | 389 kts | 271° |
| 2026-05-05 20:13 | 41.10254 | 4.24673 | 27533 ft | 387 kts | 271° |
| 2026-05-05 20:14 | 41.10625 | 4.21142 | 27278 ft | 385 kts | 271° |
| 2026-05-05 20:14 | 41.10993 | 4.17636 | 27067 ft | 384 kts | 271° |
| 2026-05-05 20:14 | 41.11358 | 4.14143 | 26802 ft | 381 kts | 271° |
| 2026-05-05 20:14 | 41.11715 | 4.10720 | 26561 ft | 379 kts | 271° |
| 2026-05-05 20:15 | 41.12073 | 4.07264 | 26309 ft | 377 kts | 271° |
| 2026-05-05 20:15 | 41.12429 | 4.03827 | 26061 ft | 376 kts | 271° |
| 2026-05-05 20:15 | 41.12783 | 4.00400 | 25815 ft | 374 kts | 271° |
| 2026-05-05 20:15 | 41.13134 | 3.96986 | 25570 ft | 373 kts | 271° |
| 2026-05-05 20:16 | 41.13482 | 3.93591 | 25327 ft | 371 kts | 271° |
| 2026-05-05 20:16 | 41.13829 | 3.90199 | 25077 ft | 370 kts | 271° |
| 2026-05-05 20:16 | 41.14173 | 3.86841 | 24908 ft | 363 kts | 271° |
| 2026-05-05 20:16 | 41.14509 | 3.83584 | 24795 ft | 349 kts | 271° |
| 2026-05-05 20:17 | 41.14829 | 3.80425 | 24647 ft | 344 kts | 271° |
| 2026-05-05 20:17 | 41.14931 | 3.77281 | 24412 ft | 338 kts | 261° |
| 2026-05-05 20:17 | 41.14491 | 3.74264 | 24176 ft | 331 kts | 248° |
| 2026-05-05 20:17 | 41.13549 | 3.71508 | 23952 ft | 327 kts | 240° |
| 2026-05-05 20:18 | 41.12438 | 3.68877 | 23715 ft | 326 kts | 239° |
| 2026-05-05 20:18 | 41.11336 | 3.66329 | 23484 ft | 325 kts | 239° |
| 2026-05-05 20:18 | 41.10214 | 3.63729 | 23223 ft | 324 kts | 239° |
| 2026-05-05 20:18 | 41.09100 | 3.61137 | 22944 ft | 323 kts | 239° |
| 2026-05-05 20:19 | 41.07989 | 3.58547 | 22682 ft | 323 kts | 239° |
| 2026-05-05 20:19 | 41.06880 | 3.55960 | 22377 ft | 323 kts | 240° |
| 2026-05-05 20:19 | 41.05773 | 3.53376 | 22116 ft | 323 kts | 240° |
| 2026-05-05 20:19 | 41.04665 | 3.50790 | 21850 ft | 323 kts | 240° |
| 2026-05-05 20:20 | 41.03562 | 3.48218 | 21599 ft | 322 kts | 240° |
| 2026-05-05 20:20 | 41.02460 | 3.45650 | 21342 ft | 321 kts | 240° |
| 2026-05-05 20:20 | 41.01730 | 3.43951 | 21179 ft | 321 kts | 240° |
| 2026-05-05 20:20 | 41.00626 | 3.41383 | 20919 ft | 320 kts | 240° |
| 2026-05-05 20:21 | 40.99525 | 3.38823 | 20680 ft | 320 kts | 240° |
| 2026-05-05 20:21 | 40.98426 | 3.36269 | 20420 ft | 319 kts | 240° |
| 2026-05-05 20:21 | 40.97326 | 3.33717 | 20169 ft | 319 kts | 240° |
| 2026-05-05 20:21 | 40.96228 | 3.31169 | 19927 ft | 318 kts | 240° |
| 2026-05-05 20:22 | 40.95133 | 3.28632 | 19678 ft | 318 kts | 239° |
| 2026-05-05 20:22 | 40.94037 | 3.26096 | 19429 ft | 317 kts | 239° |
| 2026-05-05 20:22 | 40.92943 | 3.23565 | 19215 ft | 317 kts | 239° |
| 2026-05-05 20:22 | 40.91849 | 3.21037 | 19078 ft | 317 kts | 239° |
| 2026-05-05 20:23 | 40.90755 | 3.18510 | 18906 ft | 317 kts | 239° |
| 2026-05-05 20:23 | 40.89663 | 3.15991 | 18659 ft | 316 kts | 239° |
| 2026-05-05 20:23 | 40.88571 | 3.13472 | 18397 ft | 316 kts | 239° |
| 2026-05-05 20:23 | 40.87479 | 3.10957 | 18120 ft | 315 kts | 239° |
| 2026-05-05 20:24 | 40.86388 | 3.08446 | 17825 ft | 315 kts | 239° |
| 2026-05-05 20:24 | 40.85301 | 3.05945 | 17577 ft | 313 kts | 239° |
| 2026-05-05 20:24 | 40.84217 | 3.03454 | 17314 ft | 312 kts | 239° |
| 2026-05-05 20:24 | 40.83136 | 3.00972 | 17045 ft | 312 kts | 239° |
| 2026-05-05 20:25 | 40.82070 | 2.98528 | 16815 ft | 311 kts | 239° |
| 2026-05-05 20:25 | 40.80993 | 2.96058 | 16547 ft | 310 kts | 239° |
| 2026-05-05 20:25 | 40.79942 | 2.93569 | 16277 ft | 311 kts | 243° |
| 2026-05-05 20:25 | 40.79244 | 2.90871 | 16032 ft | 313 kts | 257° |
| 2026-05-05 20:26 | 40.79217 | 2.87986 | 15842 ft | 320 kts | 274° |
| 2026-05-05 20:26 | 40.79917 | 2.85162 | 15749 ft | 329 kts | 290° |
| 2026-05-05 20:26 | 40.81021 | 2.82505 | 15449 ft | 329 kts | 294° |
| 2026-05-05 20:26 | 40.82183 | 2.79904 | 15118 ft | 329 kts | 294° |
| 2026-05-05 20:27 | 40.83346 | 2.77291 | 14723 ft | 331 kts | 294° |
| 2026-05-05 20:27 | 40.84504 | 2.74668 | 14333 ft | 330 kts | 294° |
| 2026-05-05 20:27 | 40.85655 | 2.72044 | 13948 ft | 329 kts | 294° |
| 2026-05-05 20:27 | 40.86798 | 2.69428 | 13542 ft | 329 kts | 294° |
| 2026-05-05 20:28 | 40.87937 | 2.66814 | 13092 ft | 328 kts | 295° |
| 2026-05-05 20:28 | 40.89066 | 2.64217 | 12571 ft | 324 kts | 296° |
| 2026-05-05 20:28 | 40.90183 | 2.61648 | 12042 ft | 320 kts | 296° |
| 2026-05-05 20:28 | 40.91284 | 2.59111 | 11552 ft | 316 kts | 296° |
| 2026-05-05 20:29 | 40.92343 | 2.56671 | 11058 ft | 302 kts | 296° |
| 2026-05-05 20:29 | 40.93364 | 2.54321 | 10580 ft | 288 kts | 296° |
| 2026-05-05 20:29 | 40.94338 | 2.52072 | 10121 ft | 275 kts | 296° |
| 2026-05-05 20:29 | 40.95274 | 2.49903 | 9750 ft | 269 kts | 296° |
| 2026-05-05 20:30 | 40.96198 | 2.47758 | 9353 ft | 267 kts | 296° |
| 2026-05-05 20:30 | 40.97115 | 2.45629 | 8962 ft | 266 kts | 296° |
| 2026-05-05 20:30 | 40.98029 | 2.43506 | 8567 ft | 265 kts | 297° |
| 2026-05-05 20:30 | 40.98939 | 2.41390 | 8185 ft | 264 kts | 297° |
| 2026-05-05 20:31 | 40.99848 | 2.39279 | 7799 ft | 266 kts | 297° |
| 2026-05-05 20:31 | 41.00760 | 2.37158 | 7432 ft | 264 kts | 298° |
| 2026-05-05 20:31 | 41.01664 | 2.35055 | 7068 ft | 262 kts | 298° |
| 2026-05-05 20:31 | 41.02508 | 2.32929 | 6711 ft | 260 kts | 295° |
| 2026-05-05 20:32 | 41.03303 | 2.30778 | 6344 ft | 259 kts | 295° |
| 2026-05-05 20:32 | 41.04096 | 2.28638 | 5961 ft | 259 kts | 295° |
| 2026-05-05 20:32 | 41.04893 | 2.26504 | 5585 ft | 258 kts | 296° |
| 2026-05-05 20:32 | 41.05690 | 2.24380 | 5217 ft | 256 kts | 296° |
| 2026-05-05 20:33 | 41.06477 | 2.22288 | 4841 ft | 252 kts | 295° |
| 2026-05-05 20:33 | 41.07036 | 2.20115 | 4464 ft | 248 kts | 278° |
| 2026-05-05 20:33 | 41.07154 | 2.17851 | 4116 ft | 244 kts | 271° |
| 2026-05-05 20:33 | 41.07165 | 2.15651 | 3931 ft | 234 kts | 270° |
| 2026-05-05 20:34 | 41.07169 | 2.13543 | 3761 ft | 224 kts | 270° |
| 2026-05-05 20:34 | 41.07177 | 2.11458 | 3580 ft | 230 kts | 270° |
| 2026-05-05 20:34 | 41.07182 | 2.09380 | 3406 ft | 221 kts | 270° |
| 2026-05-05 20:34 | 41.07184 | 2.07365 | 3163 ft | 217 kts | 270° |
| 2026-05-05 20:35 | 41.07309 | 2.05408 | 2913 ft | 216 kts | 282° |
| 2026-05-05 20:35 | 41.07960 | 2.03634 | 2664 ft | 218 kts | 310° |
| 2026-05-05 20:35 | 41.09070 | 2.02271 | 2420 ft | 217 kts | 319° |
| 2026-05-05 20:35 | 41.10298 | 2.01143 | 2156 ft | 214 kts | 332° |
| 2026-05-05 20:36 | 41.11730 | 2.00813 | 2034 ft | 208 kts | 4° |
| 2026-05-05 20:36 | 41.13117 | 2.01283 | 2037 ft | 205 kts | 14° |
| 2026-05-05 20:36 | 41.14467 | 2.01918 | 2026 ft | 207 kts | 17° |
| 2026-05-05 20:36 | 41.15813 | 2.02597 | 2019 ft | 207 kts | 15° |
| 2026-05-05 20:37 | 41.17177 | 2.03202 | 2025 ft | 204 kts | 14° |
| 2026-05-05 20:37 | 41.18458 | 2.03780 | 2028 ft | 188 kts | 14° |
| 2026-05-05 20:37 | 41.19688 | 2.04342 | 1930 ft | 185 kts | 14° |
| 2026-05-05 20:37 | 41.20879 | 2.04888 | 1721 ft | 177 kts | 14° |
| 2026-05-05 20:38 | 41.22024 | 2.05411 | 1462 ft | 170 kts | 13° |
| 2026-05-05 20:38 | 41.23094 | 2.05896 | 1237 ft | 160 kts | 14° |
| 2026-05-05 20:38 | 41.24122 | 2.06364 | 1023 ft | 149 kts | 13° |
| 2026-05-05 20:38 | 41.25066 | 2.06793 | 826 ft | 138 kts | 13° |
| 2026-05-05 20:39 | 41.25954 | 2.07197 | 659 ft | 134 kts | 14° |
| 2026-05-05 20:39 | 41.26819 | 2.07599 | 437 ft | 133 kts | 14° |
| 2026-05-05 20:39 | 41.27696 | 2.07988 | 274 ft | 132 kts | 15° |
| 2026-05-05 20:39 | 41.28561 | 2.08387 | 103 ft | 131 kts | 14° |
| 2026-05-05 20:40 | 41.29400 | 2.08766 | 28 ft | 116 kts | 18° |
| 2026-05-05 20:40 | 41.30021 | 2.09047 | 28 ft | 73 kts | 18° |
| 2026-05-05 20:40 | 41.30358 | 2.09203 | 28 ft | 29 kts | 19° |
| 2026-05-05 20:40 | 41.30477 | 2.09259 | 27 ft | 16 kts | 19° |
| 2026-05-05 20:41 | 41.30570 | 2.09275 | 28 ft | 13 kts | 343° |
| 2026-05-05 20:41 | 41.30648 | 2.09197 | 29 ft | 12 kts | 316° |
| 2026-05-05 20:41 | 41.30672 | 2.09111 | 28 ft | 10 kts | 253° |
| 2026-05-05 20:41 | 41.30614 | 2.09058 | 28 ft | 12 kts | 199° |
| 2026-05-05 20:42 | 41.30549 | 2.09028 | 27 ft | 11 kts | 199° |
| 2026-05-05 20:42 | 41.30465 | 2.08988 | 27 ft | 14 kts | 199° |
| 2026-05-05 20:42 | 41.30389 | 2.08898 | 29 ft | 16 kts | 245° |
| 2026-05-05 20:42 | 41.30340 | 2.08758 | 28 ft | 18 kts | 245° |
| 2026-05-05 20:43 | 41.30287 | 2.08603 | 28 ft | 19 kts | 245° |
| 2026-05-05 20:43 | 41.30234 | 2.08445 | 27 ft | 19 kts | 246° |
| 2026-05-05 20:43 | 41.30180 | 2.08287 | 29 ft | 16 kts | 245° |
| 2026-05-05 20:43 | 41.30131 | 2.08145 | 26 ft | 16 kts | 245° |
| 2026-05-05 20:44 | 41.30093 | 2.08036 | 24 ft | 14 kts | 245° |
| 2026-05-05 20:44 | 41.30052 | 2.07993 | 24 ft | 7 kts | 181° |
| 2026-05-05 20:44 | 41.29996 | 2.08017 | 29 ft | 10 kts | 159° |
| 2026-05-05 20:44 | 41.29919 | 2.08057 | 28 ft | 14 kts | 159° |
| 2026-05-05 20:45 | 41.29709 | 2.08170 | 27 ft | 14 kts | 156° |
| 2026-05-05 20:45 | 41.29605 | 2.08234 | 24 ft | 19 kts | 155° |
| 2026-05-05 20:45 | 41.29489 | 2.08304 | 26 ft | 19 kts | 156° |
| 2026-05-05 20:46 | 41.29396 | 2.08360 | 29 ft | 13 kts | 155° |
| 2026-05-05 20:46 | 41.29302 | 2.08416 | 26 ft | 16 kts | 155° |
| 2026-05-05 20:46 | 41.29198 | 2.08444 | 25 ft | 17 kts | 193° |
| 2026-05-05 20:46 | 41.29098 | 2.08398 | 28 ft | 10 kts | 199° |
| 2026-05-05 20:47 | 41.29039 | 2.08333 | 28 ft | 13 kts | 246° |
| 2026-05-05 20:47 | 41.29000 | 2.08212 | 29 ft | 16 kts | 246° |
| 2026-05-05 20:47 | 41.28974 | 2.08136 | 31 ft | 2 kts | 244° |
| 2026-05-05 20:47 | 41.28956 | 2.08086 | 28 ft | 8 kts | 245° |
| 2026-05-05 20:48 | 41.28924 | 2.07996 | 27 ft | 12 kts | 245° |
| 2026-05-05 20:48 | 41.28887 | 2.07889 | 30 ft | 11 kts | 245° |
| 2026-05-05 20:48 | 41.28884 | 2.07878 | 31 ft | 1 kts | 246° |
| 2026-05-05 20:48 | 41.28874 | 2.07834 | 30 ft | 7 kts | 259° |
| 2026-05-05 20:49 | 41.28882 | 2.07758 | 28 ft | 7 kts | 285° |
| 2026-05-05 20:49 | 41.28891 | 2.07716 | 30 ft | 1 kts | 285° |
| 2026-05-05 20:49 | 41.28895 | 2.07698 | 28 ft | 3 kts | 285° |
| 2026-05-05 20:49 | 41.28897 | 2.07685 | 28 ft | 0 kts | 285° |
| 2026-05-05 20:50 | 41.28898 | 2.07683 | 28 ft | 0 kts | 285° |
| 2026-05-05 20:50 | 41.28900 | 2.07672 | 28 ft | 1 kts | 285° |
| 2026-05-05 20:50 | 41.28900 | 2.07671 | 28 ft | 0 kts | 285° |